<?xml version="1.0" encoding="UTF-8" standalone="no" ?>
<gpx xmlns="http://www.topografix.com/GPX/1/1" xmlns:xsi="http://www.w3.org/2001/XMLSchema-instance" xsi:schemaLocation="http://www.topografix.com/GPX/1/1 http://www.topografix.com/GPX/1/1/gpx.xsd" version="1.1" creator="VisuGPX - https://www.visugpx.com">
  <metadata>
    <name>La crête de Gourras - le Trainon</name>
  </metadata>
  <trk>
    <name><![CDATA[03/05/2021 09:40:42  La crête de Gourras - le Trainon]]></name>
    <extensions>
      <line xmlns="http://www.topografix.com/GPX/gpx_style/0/2">
        <color>0000FF</color>
        <width>4</width>
      </line>
    </extensions>
    <trkseg>
      <trkpt lat="44.24352" lon="6.04972">
        <ele>1481.1999511719</ele>
        <time>2021-05-03T07:40:42Z</time>
      </trkpt>
      <trkpt lat="44.24352" lon="6.04972">
        <ele>1481.1999511719</ele>
        <time>2021-05-03T07:40:43Z</time>
      </trkpt>
      <trkpt lat="44.24465" lon="6.05221">
        <ele>1481.8000488281</ele>
        <time>2021-05-03T07:41:13Z</time>
      </trkpt>
      <trkpt lat="44.24489" lon="6.05261">
        <ele>1482</ele>
        <time>2021-05-03T07:41:32Z</time>
      </trkpt>
      <trkpt lat="44.24526" lon="6.0526">
        <ele>1484</ele>
        <time>2021-05-03T07:41:55Z</time>
      </trkpt>
      <trkpt lat="44.24546" lon="6.05249">
        <ele>1487</ele>
        <time>2021-05-03T07:42:18Z</time>
      </trkpt>
      <trkpt lat="44.24566" lon="6.05265">
        <ele>1490</ele>
        <time>2021-05-03T07:42:41Z</time>
      </trkpt>
      <trkpt lat="44.24575" lon="6.0526">
        <ele>1491.1999511719</ele>
        <time>2021-05-03T07:43:01Z</time>
      </trkpt>
      <trkpt lat="44.24586" lon="6.05277">
        <ele>1492.5999755859</ele>
        <time>2021-05-03T07:43:19Z</time>
      </trkpt>
      <trkpt lat="44.24593" lon="6.05294">
        <ele>1495.8000488281</ele>
        <time>2021-05-03T07:43:35Z</time>
      </trkpt>
      <trkpt lat="44.24602" lon="6.05307">
        <ele>1498.8000488281</ele>
        <time>2021-05-03T07:43:52Z</time>
      </trkpt>
      <trkpt lat="44.24608" lon="6.05325">
        <ele>1502</ele>
        <time>2021-05-03T07:44:11Z</time>
      </trkpt>
      <trkpt lat="44.24621" lon="6.05336">
        <ele>1505</ele>
        <time>2021-05-03T07:44:29Z</time>
      </trkpt>
      <trkpt lat="44.24636" lon="6.05336">
        <ele>1508</ele>
        <time>2021-05-03T07:44:47Z</time>
      </trkpt>
      <trkpt lat="44.2464" lon="6.05353">
        <ele>1511</ele>
        <time>2021-05-03T07:45:07Z</time>
      </trkpt>
      <trkpt lat="44.24652" lon="6.0536">
        <ele>1512</ele>
        <time>2021-05-03T07:45:24Z</time>
      </trkpt>
      <trkpt lat="44.24656" lon="6.05367">
        <ele>1514.1999511719</ele>
        <time>2021-05-03T07:45:41Z</time>
      </trkpt>
      <trkpt lat="44.24658" lon="6.05369">
        <ele>1514.4000244141</ele>
        <time>2021-05-03T07:45:47Z</time>
      </trkpt>
      <trkpt lat="44.24672" lon="6.05383">
        <ele>1515.4000244141</ele>
        <time>2021-05-03T07:46:04Z</time>
      </trkpt>
      <trkpt lat="44.24684" lon="6.05386">
        <ele>1517</ele>
        <time>2021-05-03T07:46:18Z</time>
      </trkpt>
      <trkpt lat="44.247" lon="6.05394">
        <ele>1519.1999511719</ele>
        <time>2021-05-03T07:46:34Z</time>
      </trkpt>
      <trkpt lat="44.24719" lon="6.05402">
        <ele>1521.8000488281</ele>
        <time>2021-05-03T07:46:56Z</time>
      </trkpt>
      <trkpt lat="44.24733" lon="6.05405">
        <ele>1524.8000488281</ele>
        <time>2021-05-03T07:47:12Z</time>
      </trkpt>
      <trkpt lat="44.24751" lon="6.05406">
        <ele>1527.5999755859</ele>
        <time>2021-05-03T07:47:33Z</time>
      </trkpt>
      <trkpt lat="44.24768" lon="6.05396">
        <ele>1530</ele>
        <time>2021-05-03T07:47:52Z</time>
      </trkpt>
      <trkpt lat="44.24785" lon="6.05375">
        <ele>1532.5999755859</ele>
        <time>2021-05-03T07:48:15Z</time>
      </trkpt>
      <trkpt lat="44.24794" lon="6.05355">
        <ele>1535.1999511719</ele>
        <time>2021-05-03T07:48:33Z</time>
      </trkpt>
      <trkpt lat="44.24803" lon="6.05339">
        <ele>1537</ele>
        <time>2021-05-03T07:48:49Z</time>
      </trkpt>
      <trkpt lat="44.24812" lon="6.0532">
        <ele>1539.4000244141</ele>
        <time>2021-05-03T07:49:07Z</time>
      </trkpt>
      <trkpt lat="44.24819" lon="6.05298">
        <ele>1541.5999755859</ele>
        <time>2021-05-03T07:49:25Z</time>
      </trkpt>
      <trkpt lat="44.24828" lon="6.05278">
        <ele>1544.1999511719</ele>
        <time>2021-05-03T07:49:45Z</time>
      </trkpt>
      <trkpt lat="44.24828" lon="6.05275">
        <ele>1544.4000244141</ele>
        <time>2021-05-03T07:49:47Z</time>
      </trkpt>
      <trkpt lat="44.24832" lon="6.05259">
        <ele>1546.4000244141</ele>
        <time>2021-05-03T07:50:05Z</time>
      </trkpt>
      <trkpt lat="44.24838" lon="6.05258">
        <ele>1548.8000488281</ele>
        <time>2021-05-03T07:50:40Z</time>
      </trkpt>
      <trkpt lat="44.24841" lon="6.05253">
        <ele>1548.5999755859</ele>
        <time>2021-05-03T07:50:58Z</time>
      </trkpt>
      <trkpt lat="44.24846" lon="6.05245">
        <ele>1550.1999511719</ele>
        <time>2021-05-03T07:51:17Z</time>
      </trkpt>
      <trkpt lat="44.24854" lon="6.05231">
        <ele>1553.4000244141</ele>
        <time>2021-05-03T07:51:34Z</time>
      </trkpt>
      <trkpt lat="44.24858" lon="6.05224">
        <ele>1556</ele>
        <time>2021-05-03T07:51:59Z</time>
      </trkpt>
      <trkpt lat="44.2486" lon="6.05225">
        <ele>1556.1999511719</ele>
        <time>2021-05-03T07:52:40Z</time>
      </trkpt>
      <trkpt lat="44.24857" lon="6.05224">
        <ele>1556.4000244141</ele>
        <time>2021-05-03T07:53:34Z</time>
      </trkpt>
      <trkpt lat="44.2486" lon="6.05215">
        <ele>1557.4000244141</ele>
        <time>2021-05-03T07:53:57Z</time>
      </trkpt>
      <trkpt lat="44.24862" lon="6.05211">
        <ele>1558</ele>
        <time>2021-05-03T07:54:22Z</time>
      </trkpt>
      <trkpt lat="44.24857" lon="6.05218">
        <ele>1559.8000488281</ele>
        <time>2021-05-03T07:54:40Z</time>
      </trkpt>
      <trkpt lat="44.24853" lon="6.05226">
        <ele>1560.1999511719</ele>
        <time>2021-05-03T07:54:55Z</time>
      </trkpt>
      <trkpt lat="44.24853" lon="6.05227">
        <ele>1560.4000244141</ele>
        <time>2021-05-03T07:55:20Z</time>
      </trkpt>
      <trkpt lat="44.24854" lon="6.05226">
        <ele>1560.4000244141</ele>
        <time>2021-05-03T07:55:21Z</time>
      </trkpt>
      <trkpt lat="44.24854" lon="6.05223">
        <ele>1560.4000244141</ele>
        <time>2021-05-03T07:55:23Z</time>
      </trkpt>
      <trkpt lat="44.2486" lon="6.05218">
        <ele>1560.4000244141</ele>
        <time>2021-05-03T07:55:29Z</time>
      </trkpt>
      <trkpt lat="44.24865" lon="6.05214">
        <ele>1560.5999755859</ele>
        <time>2021-05-03T07:55:34Z</time>
      </trkpt>
      <trkpt lat="44.24867" lon="6.05212">
        <ele>1560.5999755859</ele>
        <time>2021-05-03T07:55:37Z</time>
      </trkpt>
      <trkpt lat="44.24871" lon="6.05209">
        <ele>1560.5999755859</ele>
        <time>2021-05-03T07:55:42Z</time>
      </trkpt>
      <trkpt lat="44.24868" lon="6.0521">
        <ele>1560.5999755859</ele>
        <time>2021-05-03T07:55:44Z</time>
      </trkpt>
      <trkpt lat="44.24864" lon="6.05226">
        <ele>1561.4000244141</ele>
        <time>2021-05-03T07:56:00Z</time>
      </trkpt>
      <trkpt lat="44.24874" lon="6.05222">
        <ele>1564.4000244141</ele>
        <time>2021-05-03T07:56:23Z</time>
      </trkpt>
      <trkpt lat="44.24869" lon="6.05228">
        <ele>1564.4000244141</ele>
        <time>2021-05-03T07:56:44Z</time>
      </trkpt>
      <trkpt lat="44.24877" lon="6.05235">
        <ele>1565.4000244141</ele>
        <time>2021-05-03T07:57:05Z</time>
      </trkpt>
      <trkpt lat="44.2488" lon="6.0525">
        <ele>1568.1999511719</ele>
        <time>2021-05-03T07:57:25Z</time>
      </trkpt>
      <trkpt lat="44.24885" lon="6.05257">
        <ele>1571.4000244141</ele>
        <time>2021-05-03T07:57:39Z</time>
      </trkpt>
      <trkpt lat="44.2489" lon="6.05271">
        <ele>1574.4000244141</ele>
        <time>2021-05-03T07:57:58Z</time>
      </trkpt>
      <trkpt lat="44.24891" lon="6.05274">
        <ele>1575.4000244141</ele>
        <time>2021-05-03T07:58:24Z</time>
      </trkpt>
      <trkpt lat="44.24891" lon="6.05287">
        <ele>1578.5999755859</ele>
        <time>2021-05-03T07:58:46Z</time>
      </trkpt>
      <trkpt lat="44.24893" lon="6.05293">
        <ele>1581.5999755859</ele>
        <time>2021-05-03T07:59:00Z</time>
      </trkpt>
      <trkpt lat="44.24897" lon="6.05289">
        <ele>1583.8000488281</ele>
        <time>2021-05-03T07:59:19Z</time>
      </trkpt>
      <trkpt lat="44.24897" lon="6.05284">
        <ele>1584</ele>
        <time>2021-05-03T07:59:23Z</time>
      </trkpt>
      <trkpt lat="44.24895" lon="6.05272">
        <ele>1585</ele>
        <time>2021-05-03T07:59:35Z</time>
      </trkpt>
      <trkpt lat="44.2489" lon="6.05243">
        <ele>1586</ele>
        <time>2021-05-03T07:59:57Z</time>
      </trkpt>
      <trkpt lat="44.24891" lon="6.05229">
        <ele>1585</ele>
        <time>2021-05-03T08:00:17Z</time>
      </trkpt>
      <trkpt lat="44.24892" lon="6.05226">
        <ele>1584.8000488281</ele>
        <time>2021-05-03T08:00:48Z</time>
      </trkpt>
      <trkpt lat="44.24893" lon="6.05223">
        <ele>1584.8000488281</ele>
        <time>2021-05-03T08:00:50Z</time>
      </trkpt>
      <trkpt lat="44.24893" lon="6.05202">
        <ele>1583.8000488281</ele>
        <time>2021-05-03T08:01:05Z</time>
      </trkpt>
      <trkpt lat="44.24884" lon="6.05174">
        <ele>1582.8000488281</ele>
        <time>2021-05-03T08:01:26Z</time>
      </trkpt>
      <trkpt lat="44.2488" lon="6.05144">
        <ele>1582.5999755859</ele>
        <time>2021-05-03T08:01:46Z</time>
      </trkpt>
      <trkpt lat="44.2487" lon="6.05111">
        <ele>1583</ele>
        <time>2021-05-03T08:02:10Z</time>
      </trkpt>
      <trkpt lat="44.24868" lon="6.05108">
        <ele>1583.1999511719</ele>
        <time>2021-05-03T08:02:13Z</time>
      </trkpt>
      <trkpt lat="44.24856" lon="6.05102">
        <ele>1583.4000244141</ele>
        <time>2021-05-03T08:02:25Z</time>
      </trkpt>
      <trkpt lat="44.24854" lon="6.05101">
        <ele>1583.4000244141</ele>
        <time>2021-05-03T08:02:27Z</time>
      </trkpt>
      <trkpt lat="44.2484" lon="6.05094">
        <ele>1584.4000244141</ele>
        <time>2021-05-03T08:02:45Z</time>
      </trkpt>
      <trkpt lat="44.24841" lon="6.05095">
        <ele>1585.1999511719</ele>
        <time>2021-05-03T08:03:21Z</time>
      </trkpt>
      <trkpt lat="44.24839" lon="6.05095">
        <ele>1585.1999511719</ele>
        <time>2021-05-03T08:03:42Z</time>
      </trkpt>
      <trkpt lat="44.24838" lon="6.05094">
        <ele>1584.8000488281</ele>
        <time>2021-05-03T08:04:39Z</time>
      </trkpt>
      <trkpt lat="44.24823" lon="6.05094">
        <ele>1586.5999755859</ele>
        <time>2021-05-03T08:05:02Z</time>
      </trkpt>
      <trkpt lat="44.24813" lon="6.05091">
        <ele>1589.5999755859</ele>
        <time>2021-05-03T08:05:20Z</time>
      </trkpt>
      <trkpt lat="44.24812" lon="6.0509">
        <ele>1591.4000244141</ele>
        <time>2021-05-03T08:05:42Z</time>
      </trkpt>
      <trkpt lat="44.24801" lon="6.05086">
        <ele>1594.1999511719</ele>
        <time>2021-05-03T08:06:04Z</time>
      </trkpt>
      <trkpt lat="44.24791" lon="6.05084">
        <ele>1597.1999511719</ele>
        <time>2021-05-03T08:06:23Z</time>
      </trkpt>
      <trkpt lat="44.24782" lon="6.0508">
        <ele>1600.1999511719</ele>
        <time>2021-05-03T08:06:42Z</time>
      </trkpt>
      <trkpt lat="44.24773" lon="6.05078">
        <ele>1603.1999511719</ele>
        <time>2021-05-03T08:06:59Z</time>
      </trkpt>
      <trkpt lat="44.24766" lon="6.05075">
        <ele>1606.1999511719</ele>
        <time>2021-05-03T08:07:17Z</time>
      </trkpt>
      <trkpt lat="44.24771" lon="6.05077">
        <ele>1609</ele>
        <time>2021-05-03T08:07:43Z</time>
      </trkpt>
      <trkpt lat="44.24763" lon="6.05074">
        <ele>1609.5999755859</ele>
        <time>2021-05-03T08:08:11Z</time>
      </trkpt>
      <trkpt lat="44.24755" lon="6.05071">
        <ele>1612.5999755859</ele>
        <time>2021-05-03T08:08:26Z</time>
      </trkpt>
      <trkpt lat="44.24745" lon="6.05067">
        <ele>1615.8000488281</ele>
        <time>2021-05-03T08:08:43Z</time>
      </trkpt>
      <trkpt lat="44.24741" lon="6.05064">
        <ele>1618</ele>
        <time>2021-05-03T08:09:11Z</time>
      </trkpt>
      <trkpt lat="44.2473" lon="6.05059">
        <ele>1620.8000488281</ele>
        <time>2021-05-03T08:09:29Z</time>
      </trkpt>
      <trkpt lat="44.2473" lon="6.0506">
        <ele>1622.5999755859</ele>
        <time>2021-05-03T08:09:55Z</time>
      </trkpt>
      <trkpt lat="44.24731" lon="6.05049">
        <ele>1622.5999755859</ele>
        <time>2021-05-03T08:10:09Z</time>
      </trkpt>
      <trkpt lat="44.24729" lon="6.05034">
        <ele>1624.1999511719</ele>
        <time>2021-05-03T08:10:28Z</time>
      </trkpt>
      <trkpt lat="44.24723" lon="6.05014">
        <ele>1627</ele>
        <time>2021-05-03T08:10:52Z</time>
      </trkpt>
      <trkpt lat="44.24719" lon="6.04997">
        <ele>1630.1999511719</ele>
        <time>2021-05-03T08:11:12Z</time>
      </trkpt>
      <trkpt lat="44.24716" lon="6.04992">
        <ele>1632.1999511719</ele>
        <time>2021-05-03T08:11:41Z</time>
      </trkpt>
      <trkpt lat="44.24716" lon="6.04988">
        <ele>1632.1999511719</ele>
        <time>2021-05-03T08:12:02Z</time>
      </trkpt>
      <trkpt lat="44.24715" lon="6.04976">
        <ele>1632.5999755859</ele>
        <time>2021-05-03T08:12:13Z</time>
      </trkpt>
      <trkpt lat="44.24716" lon="6.04954">
        <ele>1634.1999511719</ele>
        <time>2021-05-03T08:12:33Z</time>
      </trkpt>
      <trkpt lat="44.24717" lon="6.04941">
        <ele>1635</ele>
        <time>2021-05-03T08:12:51Z</time>
      </trkpt>
      <trkpt lat="44.24719" lon="6.04921">
        <ele>1635.5999755859</ele>
        <time>2021-05-03T08:13:09Z</time>
      </trkpt>
      <trkpt lat="44.24719" lon="6.04905">
        <ele>1638.1999511719</ele>
        <time>2021-05-03T08:13:26Z</time>
      </trkpt>
      <trkpt lat="44.24724" lon="6.04887">
        <ele>1639.8000488281</ele>
        <time>2021-05-03T08:13:43Z</time>
      </trkpt>
      <trkpt lat="44.24727" lon="6.04866">
        <ele>1640.4000244141</ele>
        <time>2021-05-03T08:14:01Z</time>
      </trkpt>
      <trkpt lat="44.2473" lon="6.04851">
        <ele>1641.4000244141</ele>
        <time>2021-05-03T08:14:19Z</time>
      </trkpt>
      <trkpt lat="44.24728" lon="6.04847">
        <ele>1641.4000244141</ele>
        <time>2021-05-03T08:14:28Z</time>
      </trkpt>
      <trkpt lat="44.24728" lon="6.04824">
        <ele>1641.4000244141</ele>
        <time>2021-05-03T08:14:49Z</time>
      </trkpt>
      <trkpt lat="44.24729" lon="6.04821">
        <ele>1641.4000244141</ele>
        <time>2021-05-03T08:14:51Z</time>
      </trkpt>
      <trkpt lat="44.24732" lon="6.04799">
        <ele>1641.8000488281</ele>
        <time>2021-05-03T08:15:09Z</time>
      </trkpt>
      <trkpt lat="44.24733" lon="6.04797">
        <ele>1642.5999755859</ele>
        <time>2021-05-03T08:15:49Z</time>
      </trkpt>
      <trkpt lat="44.24735" lon="6.04778">
        <ele>1643.1999511719</ele>
        <time>2021-05-03T08:16:08Z</time>
      </trkpt>
      <trkpt lat="44.24737" lon="6.04758">
        <ele>1644.8000488281</ele>
        <time>2021-05-03T08:16:27Z</time>
      </trkpt>
      <trkpt lat="44.24738" lon="6.04736">
        <ele>1646.8000488281</ele>
        <time>2021-05-03T08:16:53Z</time>
      </trkpt>
      <trkpt lat="44.24739" lon="6.04733">
        <ele>1647.4000244141</ele>
        <time>2021-05-03T08:17:04Z</time>
      </trkpt>
      <trkpt lat="44.24739" lon="6.04731">
        <ele>1647.5999755859</ele>
        <time>2021-05-03T08:17:06Z</time>
      </trkpt>
      <trkpt lat="44.24739" lon="6.04701">
        <ele>1649.4000244141</ele>
        <time>2021-05-03T08:17:28Z</time>
      </trkpt>
      <trkpt lat="44.2474" lon="6.04681">
        <ele>1651</ele>
        <time>2021-05-03T08:17:45Z</time>
      </trkpt>
      <trkpt lat="44.2474" lon="6.04654">
        <ele>1652.8000488281</ele>
        <time>2021-05-03T08:18:07Z</time>
      </trkpt>
      <trkpt lat="44.24742" lon="6.04632">
        <ele>1654</ele>
        <time>2021-05-03T08:18:24Z</time>
      </trkpt>
      <trkpt lat="44.2474" lon="6.04625">
        <ele>1655.8000488281</ele>
        <time>2021-05-03T08:18:40Z</time>
      </trkpt>
      <trkpt lat="44.24741" lon="6.04626">
        <ele>1655.5999755859</ele>
        <time>2021-05-03T08:19:32Z</time>
      </trkpt>
      <trkpt lat="44.2474" lon="6.04626">
        <ele>1656.1999511719</ele>
        <time>2021-05-03T08:20:19Z</time>
      </trkpt>
      <trkpt lat="44.24743" lon="6.04619">
        <ele>1655.8000488281</ele>
        <time>2021-05-03T08:20:50Z</time>
      </trkpt>
      <trkpt lat="44.24745" lon="6.04609">
        <ele>1656.8000488281</ele>
        <time>2021-05-03T08:21:08Z</time>
      </trkpt>
      <trkpt lat="44.24744" lon="6.04608">
        <ele>1656.8000488281</ele>
        <time>2021-05-03T08:21:46Z</time>
      </trkpt>
      <trkpt lat="44.24745" lon="6.04608">
        <ele>1656.8000488281</ele>
        <time>2021-05-03T08:21:49Z</time>
      </trkpt>
      <trkpt lat="44.24742" lon="6.04609">
        <ele>1657.8000488281</ele>
        <time>2021-05-03T08:22:41Z</time>
      </trkpt>
      <trkpt lat="44.24744" lon="6.04605">
        <ele>1657.8000488281</ele>
        <time>2021-05-03T08:23:24Z</time>
      </trkpt>
      <trkpt lat="44.24745" lon="6.04586">
        <ele>1659</ele>
        <time>2021-05-03T08:23:43Z</time>
      </trkpt>
      <trkpt lat="44.24746" lon="6.04581">
        <ele>1660</ele>
        <time>2021-05-03T08:24:18Z</time>
      </trkpt>
      <trkpt lat="44.24746" lon="6.04582">
        <ele>1660.1999511719</ele>
        <time>2021-05-03T08:25:22Z</time>
      </trkpt>
      <trkpt lat="44.24747" lon="6.04564">
        <ele>1661</ele>
        <time>2021-05-03T08:25:46Z</time>
      </trkpt>
      <trkpt lat="44.24749" lon="6.04541">
        <ele>1662</ele>
        <time>2021-05-03T08:26:08Z</time>
      </trkpt>
      <trkpt lat="44.24752" lon="6.0452">
        <ele>1662.5999755859</ele>
        <time>2021-05-03T08:26:27Z</time>
      </trkpt>
      <trkpt lat="44.24757" lon="6.04496">
        <ele>1663</ele>
        <time>2021-05-03T08:26:47Z</time>
      </trkpt>
      <trkpt lat="44.24757" lon="6.04484">
        <ele>1663.8000488281</ele>
        <time>2021-05-03T08:27:06Z</time>
      </trkpt>
      <trkpt lat="44.24759" lon="6.04468">
        <ele>1665</ele>
        <time>2021-05-03T08:27:28Z</time>
      </trkpt>
      <trkpt lat="44.24761" lon="6.04443">
        <ele>1666.8000488281</ele>
        <time>2021-05-03T08:27:51Z</time>
      </trkpt>
      <trkpt lat="44.24763" lon="6.0443">
        <ele>1667.5999755859</ele>
        <time>2021-05-03T08:28:09Z</time>
      </trkpt>
      <trkpt lat="44.24768" lon="6.04409">
        <ele>1668.1999511719</ele>
        <time>2021-05-03T08:28:28Z</time>
      </trkpt>
      <trkpt lat="44.24773" lon="6.04386">
        <ele>1669.4000244141</ele>
        <time>2021-05-03T08:28:50Z</time>
      </trkpt>
      <trkpt lat="44.2477" lon="6.04359">
        <ele>1671.1999511719</ele>
        <time>2021-05-03T08:29:18Z</time>
      </trkpt>
      <trkpt lat="44.2477" lon="6.04341">
        <ele>1673.5999755859</ele>
        <time>2021-05-03T08:29:37Z</time>
      </trkpt>
      <trkpt lat="44.24772" lon="6.04325">
        <ele>1675.1999511719</ele>
        <time>2021-05-03T08:29:59Z</time>
      </trkpt>
      <trkpt lat="44.24774" lon="6.04304">
        <ele>1676.1999511719</ele>
        <time>2021-05-03T08:30:18Z</time>
      </trkpt>
      <trkpt lat="44.24775" lon="6.04292">
        <ele>1677.8000488281</ele>
        <time>2021-05-03T08:30:38Z</time>
      </trkpt>
      <trkpt lat="44.24779" lon="6.0427">
        <ele>1678.1999511719</ele>
        <time>2021-05-03T08:30:58Z</time>
      </trkpt>
      <trkpt lat="44.24785" lon="6.04247">
        <ele>1679.1999511719</ele>
        <time>2021-05-03T08:31:18Z</time>
      </trkpt>
      <trkpt lat="44.2479" lon="6.04226">
        <ele>1680</ele>
        <time>2021-05-03T08:31:35Z</time>
      </trkpt>
      <trkpt lat="44.24793" lon="6.04206">
        <ele>1681.8000488281</ele>
        <time>2021-05-03T08:31:55Z</time>
      </trkpt>
      <trkpt lat="44.24796" lon="6.04187">
        <ele>1683.1999511719</ele>
        <time>2021-05-03T08:32:13Z</time>
      </trkpt>
      <trkpt lat="44.24801" lon="6.04164">
        <ele>1685.4000244141</ele>
        <time>2021-05-03T08:32:37Z</time>
      </trkpt>
      <trkpt lat="44.24801" lon="6.04141">
        <ele>1687</ele>
        <time>2021-05-03T08:33:01Z</time>
      </trkpt>
      <trkpt lat="44.24798" lon="6.04138">
        <ele>1689</ele>
        <time>2021-05-03T08:33:23Z</time>
      </trkpt>
      <trkpt lat="44.24798" lon="6.04137">
        <ele>1689</ele>
        <time>2021-05-03T08:33:49Z</time>
      </trkpt>
      <trkpt lat="44.24797" lon="6.04141">
        <ele>1688.8000488281</ele>
        <time>2021-05-03T08:34:16Z</time>
      </trkpt>
      <trkpt lat="44.24799" lon="6.04138">
        <ele>1689</ele>
        <time>2021-05-03T08:34:58Z</time>
      </trkpt>
      <trkpt lat="44.24802" lon="6.04117">
        <ele>1690.5999755859</ele>
        <time>2021-05-03T08:35:21Z</time>
      </trkpt>
      <trkpt lat="44.248" lon="6.04103">
        <ele>1693.5999755859</ele>
        <time>2021-05-03T08:35:41Z</time>
      </trkpt>
      <trkpt lat="44.248" lon="6.04091">
        <ele>1696.8000488281</ele>
        <time>2021-05-03T08:35:55Z</time>
      </trkpt>
      <trkpt lat="44.248" lon="6.04089">
        <ele>1698.4000244141</ele>
        <time>2021-05-03T08:36:22Z</time>
      </trkpt>
      <trkpt lat="44.24801" lon="6.04097">
        <ele>1698.1999511719</ele>
        <time>2021-05-03T08:36:53Z</time>
      </trkpt>
      <trkpt lat="44.24801" lon="6.04105">
        <ele>1696.8000488281</ele>
        <time>2021-05-03T08:37:22Z</time>
      </trkpt>
      <trkpt lat="44.24801" lon="6.04122">
        <ele>1693.1999511719</ele>
        <time>2021-05-03T08:37:37Z</time>
      </trkpt>
      <trkpt lat="44.248" lon="6.04138">
        <ele>1690.4000244141</ele>
        <time>2021-05-03T08:37:56Z</time>
      </trkpt>
      <trkpt lat="44.24799" lon="6.04163">
        <ele>1687.4000244141</ele>
        <time>2021-05-03T08:38:18Z</time>
      </trkpt>
      <trkpt lat="44.24797" lon="6.04183">
        <ele>1685.1999511719</ele>
        <time>2021-05-03T08:38:40Z</time>
      </trkpt>
      <trkpt lat="44.24796" lon="6.04188">
        <ele>1684.5999755859</ele>
        <time>2021-05-03T08:38:44Z</time>
      </trkpt>
      <trkpt lat="44.2479" lon="6.04217">
        <ele>1682.5999755859</ele>
        <time>2021-05-03T08:39:07Z</time>
      </trkpt>
      <trkpt lat="44.24788" lon="6.04232">
        <ele>1681.5999755859</ele>
        <time>2021-05-03T08:39:20Z</time>
      </trkpt>
      <trkpt lat="44.24783" lon="6.04258">
        <ele>1680.1999511719</ele>
        <time>2021-05-03T08:39:42Z</time>
      </trkpt>
      <trkpt lat="44.24776" lon="6.04289">
        <ele>1678.4000244141</ele>
        <time>2021-05-03T08:40:08Z</time>
      </trkpt>
      <trkpt lat="44.24773" lon="6.04319">
        <ele>1677</ele>
        <time>2021-05-03T08:40:30Z</time>
      </trkpt>
      <trkpt lat="44.24771" lon="6.0434">
        <ele>1674.8000488281</ele>
        <time>2021-05-03T08:40:48Z</time>
      </trkpt>
      <trkpt lat="44.24774" lon="6.04341">
        <ele>1673.4000244141</ele>
        <time>2021-05-03T08:41:11Z</time>
      </trkpt>
      <trkpt lat="44.24774" lon="6.04343">
        <ele>1673</ele>
        <time>2021-05-03T08:41:41Z</time>
      </trkpt>
      <trkpt lat="44.24774" lon="6.04345">
        <ele>1672.8000488281</ele>
        <time>2021-05-03T08:42:27Z</time>
      </trkpt>
      <trkpt lat="44.24774" lon="6.04344">
        <ele>1672.8000488281</ele>
        <time>2021-05-03T08:43:09Z</time>
      </trkpt>
      <trkpt lat="44.24771" lon="6.04357">
        <ele>1673</ele>
        <time>2021-05-03T08:43:25Z</time>
      </trkpt>
      <trkpt lat="44.24765" lon="6.04382">
        <ele>1672.5999755859</ele>
        <time>2021-05-03T08:43:43Z</time>
      </trkpt>
      <trkpt lat="44.24761" lon="6.04406">
        <ele>1671.4000244141</ele>
        <time>2021-05-03T08:43:59Z</time>
      </trkpt>
      <trkpt lat="44.24756" lon="6.04427">
        <ele>1670</ele>
        <time>2021-05-03T08:44:17Z</time>
      </trkpt>
      <trkpt lat="44.24754" lon="6.04433">
        <ele>1669.8000488281</ele>
        <time>2021-05-03T08:44:21Z</time>
      </trkpt>
      <trkpt lat="44.2476" lon="6.04464">
        <ele>1668.4000244141</ele>
        <time>2021-05-03T08:44:42Z</time>
      </trkpt>
      <trkpt lat="44.24761" lon="6.04468">
        <ele>1667.5999755859</ele>
        <time>2021-05-03T08:44:45Z</time>
      </trkpt>
      <trkpt lat="44.2476" lon="6.04489">
        <ele>1665.4000244141</ele>
        <time>2021-05-03T08:44:58Z</time>
      </trkpt>
      <trkpt lat="44.24756" lon="6.04519">
        <ele>1663.1999511719</ele>
        <time>2021-05-03T08:45:18Z</time>
      </trkpt>
      <trkpt lat="44.2475" lon="6.04543">
        <ele>1662.8000488281</ele>
        <time>2021-05-03T08:45:36Z</time>
      </trkpt>
      <trkpt lat="44.2475" lon="6.04554">
        <ele>1662.5999755859</ele>
        <time>2021-05-03T08:45:43Z</time>
      </trkpt>
      <trkpt lat="44.24749" lon="6.04561">
        <ele>1662.4000244141</ele>
        <time>2021-05-03T08:45:48Z</time>
      </trkpt>
      <trkpt lat="44.24746" lon="6.04589">
        <ele>1660.8000488281</ele>
        <time>2021-05-03T08:46:06Z</time>
      </trkpt>
      <trkpt lat="44.24745" lon="6.0462">
        <ele>1657.5999755859</ele>
        <time>2021-05-03T08:46:26Z</time>
      </trkpt>
      <trkpt lat="44.24742" lon="6.04631">
        <ele>1656.1999511719</ele>
        <time>2021-05-03T08:46:33Z</time>
      </trkpt>
      <trkpt lat="44.2474" lon="6.04653">
        <ele>1654.1999511719</ele>
        <time>2021-05-03T08:46:49Z</time>
      </trkpt>
      <trkpt lat="44.2474" lon="6.04675">
        <ele>1653.4000244141</ele>
        <time>2021-05-03T08:47:05Z</time>
      </trkpt>
      <trkpt lat="44.24737" lon="6.047">
        <ele>1651.8000488281</ele>
        <time>2021-05-03T08:47:23Z</time>
      </trkpt>
      <trkpt lat="44.24738" lon="6.04705">
        <ele>1651.5999755859</ele>
        <time>2021-05-03T08:47:27Z</time>
      </trkpt>
      <trkpt lat="44.24738" lon="6.04719">
        <ele>1650</ele>
        <time>2021-05-03T08:47:42Z</time>
      </trkpt>
      <trkpt lat="44.24745" lon="6.04731">
        <ele>1647.5999755859</ele>
        <time>2021-05-03T08:48:01Z</time>
      </trkpt>
      <trkpt lat="44.24751" lon="6.04743">
        <ele>1644.4000244141</ele>
        <time>2021-05-03T08:48:16Z</time>
      </trkpt>
      <trkpt lat="44.24756" lon="6.04752">
        <ele>1641.1999511719</ele>
        <time>2021-05-03T08:48:30Z</time>
      </trkpt>
      <trkpt lat="44.24756" lon="6.04752">
        <ele>1640.8000488281</ele>
        <time>2021-05-03T08:48:31Z</time>
      </trkpt>
      <trkpt lat="44.24756" lon="6.04761">
        <ele>1638.5999755859</ele>
        <time>2021-05-03T08:48:39Z</time>
      </trkpt>
      <trkpt lat="44.24761" lon="6.04781">
        <ele>1635.8000488281</ele>
        <time>2021-05-03T08:48:58Z</time>
      </trkpt>
      <trkpt lat="44.24761" lon="6.04787">
        <ele>1632.5999755859</ele>
        <time>2021-05-03T08:49:13Z</time>
      </trkpt>
      <trkpt lat="44.24763" lon="6.04798">
        <ele>1631.5999755859</ele>
        <time>2021-05-03T08:49:25Z</time>
      </trkpt>
      <trkpt lat="44.24764" lon="6.04815">
        <ele>1629.5999755859</ele>
        <time>2021-05-03T08:49:38Z</time>
      </trkpt>
      <trkpt lat="44.24766" lon="6.0482">
        <ele>1629</ele>
        <time>2021-05-03T08:49:41Z</time>
      </trkpt>
      <trkpt lat="44.24768" lon="6.04837">
        <ele>1626.5999755859</ele>
        <time>2021-05-03T08:49:56Z</time>
      </trkpt>
      <trkpt lat="44.24772" lon="6.04853">
        <ele>1623.1999511719</ele>
        <time>2021-05-03T08:50:09Z</time>
      </trkpt>
      <trkpt lat="44.24777" lon="6.04873">
        <ele>1620</ele>
        <time>2021-05-03T08:50:25Z</time>
      </trkpt>
      <trkpt lat="44.24779" lon="6.04889">
        <ele>1617</ele>
        <time>2021-05-03T08:50:39Z</time>
      </trkpt>
      <trkpt lat="44.2478" lon="6.04897">
        <ele>1615</ele>
        <time>2021-05-03T08:51:01Z</time>
      </trkpt>
      <trkpt lat="44.24784" lon="6.04912">
        <ele>1613.1999511719</ele>
        <time>2021-05-03T08:51:25Z</time>
      </trkpt>
      <trkpt lat="44.24787" lon="6.04929">
        <ele>1610.4000244141</ele>
        <time>2021-05-03T08:51:42Z</time>
      </trkpt>
      <trkpt lat="44.24789" lon="6.04945">
        <ele>1607.1999511719</ele>
        <time>2021-05-03T08:51:56Z</time>
      </trkpt>
      <trkpt lat="44.24796" lon="6.04959">
        <ele>1604</ele>
        <time>2021-05-03T08:52:11Z</time>
      </trkpt>
      <trkpt lat="44.24801" lon="6.04976">
        <ele>1601</ele>
        <time>2021-05-03T08:52:28Z</time>
      </trkpt>
      <trkpt lat="44.24803" lon="6.04984">
        <ele>1599.8000488281</ele>
        <time>2021-05-03T08:52:35Z</time>
      </trkpt>
      <trkpt lat="44.2481" lon="6.05001">
        <ele>1596.8000488281</ele>
        <time>2021-05-03T08:52:50Z</time>
      </trkpt>
      <trkpt lat="44.24816" lon="6.05019">
        <ele>1593.5999755859</ele>
        <time>2021-05-03T08:53:07Z</time>
      </trkpt>
      <trkpt lat="44.24824" lon="6.05041">
        <ele>1591.4000244141</ele>
        <time>2021-05-03T08:53:25Z</time>
      </trkpt>
      <trkpt lat="44.24835" lon="6.05057">
        <ele>1588.5999755859</ele>
        <time>2021-05-03T08:53:41Z</time>
      </trkpt>
      <trkpt lat="44.24851" lon="6.05074">
        <ele>1585.1999511719</ele>
        <time>2021-05-03T08:54:01Z</time>
      </trkpt>
      <trkpt lat="44.24861" lon="6.05089">
        <ele>1583.5999755859</ele>
        <time>2021-05-03T08:54:19Z</time>
      </trkpt>
      <trkpt lat="44.24874" lon="6.05103">
        <ele>1583.4000244141</ele>
        <time>2021-05-03T08:54:35Z</time>
      </trkpt>
      <trkpt lat="44.24886" lon="6.05102">
        <ele>1583.4000244141</ele>
        <time>2021-05-03T08:54:48Z</time>
      </trkpt>
      <trkpt lat="44.249" lon="6.05093">
        <ele>1583</ele>
        <time>2021-05-03T08:55:02Z</time>
      </trkpt>
      <trkpt lat="44.24903" lon="6.05092">
        <ele>1582.8000488281</ele>
        <time>2021-05-03T08:55:05Z</time>
      </trkpt>
      <trkpt lat="44.24923" lon="6.05091">
        <ele>1581.8000488281</ele>
        <time>2021-05-03T08:55:22Z</time>
      </trkpt>
      <trkpt lat="44.24955" lon="6.05096">
        <ele>1580</ele>
        <time>2021-05-03T08:55:48Z</time>
      </trkpt>
      <trkpt lat="44.24972" lon="6.05115">
        <ele>1577.1999511719</ele>
        <time>2021-05-03T08:56:08Z</time>
      </trkpt>
      <trkpt lat="44.24977" lon="6.0515">
        <ele>1575</ele>
        <time>2021-05-03T08:56:26Z</time>
      </trkpt>
      <trkpt lat="44.24985" lon="6.05169">
        <ele>1572</ele>
        <time>2021-05-03T08:56:42Z</time>
      </trkpt>
      <trkpt lat="44.24997" lon="6.05168">
        <ele>1569.8000488281</ele>
        <time>2021-05-03T08:56:56Z</time>
      </trkpt>
      <trkpt lat="44.25019" lon="6.05167">
        <ele>1566.5999755859</ele>
        <time>2021-05-03T08:57:15Z</time>
      </trkpt>
      <trkpt lat="44.25037" lon="6.05171">
        <ele>1563.5999755859</ele>
        <time>2021-05-03T08:57:33Z</time>
      </trkpt>
      <trkpt lat="44.2506" lon="6.05172">
        <ele>1560.5999755859</ele>
        <time>2021-05-03T08:57:49Z</time>
      </trkpt>
      <trkpt lat="44.2508" lon="6.05174">
        <ele>1558.1999511719</ele>
        <time>2021-05-03T08:58:11Z</time>
      </trkpt>
      <trkpt lat="44.25102" lon="6.0518">
        <ele>1555.4000244141</ele>
        <time>2021-05-03T08:58:32Z</time>
      </trkpt>
      <trkpt lat="44.2512" lon="6.05184">
        <ele>1552.8000488281</ele>
        <time>2021-05-03T08:58:50Z</time>
      </trkpt>
      <trkpt lat="44.25133" lon="6.05186">
        <ele>1551</ele>
        <time>2021-05-03T08:59:03Z</time>
      </trkpt>
      <trkpt lat="44.2514" lon="6.05188">
        <ele>1549.8000488281</ele>
        <time>2021-05-03T08:59:15Z</time>
      </trkpt>
      <trkpt lat="44.25144" lon="6.05195">
        <ele>1549.4000244141</ele>
        <time>2021-05-03T08:59:33Z</time>
      </trkpt>
      <trkpt lat="44.25149" lon="6.05208">
        <ele>1548.5999755859</ele>
        <time>2021-05-03T08:59:56Z</time>
      </trkpt>
      <trkpt lat="44.25146" lon="6.05198">
        <ele>1548.5999755859</ele>
        <time>2021-05-03T09:00:04Z</time>
      </trkpt>
      <trkpt lat="44.25152" lon="6.05196">
        <ele>1548.4000244141</ele>
        <time>2021-05-03T09:00:42Z</time>
      </trkpt>
      <trkpt lat="44.25158" lon="6.05203">
        <ele>1547.4000244141</ele>
        <time>2021-05-03T09:00:58Z</time>
      </trkpt>
      <trkpt lat="44.25169" lon="6.05225">
        <ele>1544.4000244141</ele>
        <time>2021-05-03T09:01:18Z</time>
      </trkpt>
      <trkpt lat="44.25173" lon="6.05243">
        <ele>1542.8000488281</ele>
        <time>2021-05-03T09:01:29Z</time>
      </trkpt>
      <trkpt lat="44.25175" lon="6.0525">
        <ele>1541.5999755859</ele>
        <time>2021-05-03T09:01:34Z</time>
      </trkpt>
      <trkpt lat="44.25186" lon="6.05269">
        <ele>1539.4000244141</ele>
        <time>2021-05-03T09:01:49Z</time>
      </trkpt>
      <trkpt lat="44.25199" lon="6.05293">
        <ele>1536.4000244141</ele>
        <time>2021-05-03T09:02:07Z</time>
      </trkpt>
      <trkpt lat="44.25202" lon="6.05298">
        <ele>1535.8000488281</ele>
        <time>2021-05-03T09:02:11Z</time>
      </trkpt>
      <trkpt lat="44.25203" lon="6.053">
        <ele>1535.4000244141</ele>
        <time>2021-05-03T09:02:13Z</time>
      </trkpt>
      <trkpt lat="44.25206" lon="6.05309">
        <ele>1534.5999755859</ele>
        <time>2021-05-03T09:02:19Z</time>
      </trkpt>
      <trkpt lat="44.25214" lon="6.05332">
        <ele>1532.4000244141</ele>
        <time>2021-05-03T09:02:35Z</time>
      </trkpt>
      <trkpt lat="44.25215" lon="6.05335">
        <ele>1532.1999511719</ele>
        <time>2021-05-03T09:02:37Z</time>
      </trkpt>
      <trkpt lat="44.25218" lon="6.0534">
        <ele>1531.8000488281</ele>
        <time>2021-05-03T09:02:41Z</time>
      </trkpt>
      <trkpt lat="44.25222" lon="6.05339">
        <ele>1531.4000244141</ele>
        <time>2021-05-03T09:02:44Z</time>
      </trkpt>
      <trkpt lat="44.25229" lon="6.0532">
        <ele>1529.4000244141</ele>
        <time>2021-05-03T09:02:59Z</time>
      </trkpt>
      <trkpt lat="44.25227" lon="6.05287">
        <ele>1527.4000244141</ele>
        <time>2021-05-03T09:03:22Z</time>
      </trkpt>
      <trkpt lat="44.25214" lon="6.05255">
        <ele>1525</ele>
        <time>2021-05-03T09:03:42Z</time>
      </trkpt>
      <trkpt lat="44.25211" lon="6.05234">
        <ele>1523.8000488281</ele>
        <time>2021-05-03T09:03:53Z</time>
      </trkpt>
      <trkpt lat="44.25214" lon="6.05234">
        <ele>1523.4000244141</ele>
        <time>2021-05-03T09:03:57Z</time>
      </trkpt>
      <trkpt lat="44.25224" lon="6.0525">
        <ele>1521.8000488281</ele>
        <time>2021-05-03T09:04:12Z</time>
      </trkpt>
      <trkpt lat="44.25234" lon="6.05267">
        <ele>1520.4000244141</ele>
        <time>2021-05-03T09:04:31Z</time>
      </trkpt>
      <trkpt lat="44.25242" lon="6.05283">
        <ele>1518.8000488281</ele>
        <time>2021-05-03T09:04:49Z</time>
      </trkpt>
      <trkpt lat="44.25246" lon="6.05295">
        <ele>1518</ele>
        <time>2021-05-03T09:04:58Z</time>
      </trkpt>
      <trkpt lat="44.25248" lon="6.053">
        <ele>1517</ele>
        <time>2021-05-03T09:05:03Z</time>
      </trkpt>
      <trkpt lat="44.25264" lon="6.05324">
        <ele>1514.1999511719</ele>
        <time>2021-05-03T09:05:22Z</time>
      </trkpt>
      <trkpt lat="44.25277" lon="6.05341">
        <ele>1512.5999755859</ele>
        <time>2021-05-03T09:05:37Z</time>
      </trkpt>
      <trkpt lat="44.25281" lon="6.0535">
        <ele>1511.1999511719</ele>
        <time>2021-05-03T09:05:43Z</time>
      </trkpt>
      <trkpt lat="44.25287" lon="6.05359">
        <ele>1510.4000244141</ele>
        <time>2021-05-03T09:05:49Z</time>
      </trkpt>
      <trkpt lat="44.25301" lon="6.05378">
        <ele>1508.8000488281</ele>
        <time>2021-05-03T09:06:04Z</time>
      </trkpt>
      <trkpt lat="44.25308" lon="6.05397">
        <ele>1507.4000244141</ele>
        <time>2021-05-03T09:06:21Z</time>
      </trkpt>
      <trkpt lat="44.25323" lon="6.05426">
        <ele>1505.4000244141</ele>
        <time>2021-05-03T09:06:43Z</time>
      </trkpt>
      <trkpt lat="44.2533" lon="6.05444">
        <ele>1504</ele>
        <time>2021-05-03T09:06:56Z</time>
      </trkpt>
      <trkpt lat="44.25336" lon="6.05473">
        <ele>1502</ele>
        <time>2021-05-03T09:07:16Z</time>
      </trkpt>
      <trkpt lat="44.25334" lon="6.05497">
        <ele>1500.5999755859</ele>
        <time>2021-05-03T09:07:34Z</time>
      </trkpt>
      <trkpt lat="44.25333" lon="6.05528">
        <ele>1500.1999511719</ele>
        <time>2021-05-03T09:07:56Z</time>
      </trkpt>
      <trkpt lat="44.25331" lon="6.05538">
        <ele>1500</ele>
        <time>2021-05-03T09:08:05Z</time>
      </trkpt>
      <trkpt lat="44.25338" lon="6.05549">
        <ele>1500</ele>
        <time>2021-05-03T09:08:30Z</time>
      </trkpt>
      <trkpt lat="44.25342" lon="6.0555">
        <ele>1500</ele>
        <time>2021-05-03T09:08:34Z</time>
      </trkpt>
      <trkpt lat="44.25342" lon="6.05553">
        <ele>1500</ele>
        <time>2021-05-03T09:08:36Z</time>
      </trkpt>
      <trkpt lat="44.25342" lon="6.05548">
        <ele>1499.1999511719</ele>
        <time>2021-05-03T09:08:52Z</time>
      </trkpt>
      <trkpt lat="44.25356" lon="6.05534">
        <ele>1498.1999511719</ele>
        <time>2021-05-03T09:09:09Z</time>
      </trkpt>
      <trkpt lat="44.2538" lon="6.05531">
        <ele>1497</ele>
        <time>2021-05-03T09:09:30Z</time>
      </trkpt>
      <trkpt lat="44.25384" lon="6.05529">
        <ele>1497.1999511719</ele>
        <time>2021-05-03T09:09:34Z</time>
      </trkpt>
      <trkpt lat="44.25409" lon="6.05508">
        <ele>1497.1999511719</ele>
        <time>2021-05-03T09:09:52Z</time>
      </trkpt>
      <trkpt lat="44.25416" lon="6.05487">
        <ele>1497</ele>
        <time>2021-05-03T09:10:09Z</time>
      </trkpt>
      <trkpt lat="44.25423" lon="6.05474">
        <ele>1496.8000488281</ele>
        <time>2021-05-03T09:10:19Z</time>
      </trkpt>
      <trkpt lat="44.25427" lon="6.05469">
        <ele>1496.5999755859</ele>
        <time>2021-05-03T09:10:23Z</time>
      </trkpt>
      <trkpt lat="44.25442" lon="6.05457">
        <ele>1496.1999511719</ele>
        <time>2021-05-03T09:10:37Z</time>
      </trkpt>
      <trkpt lat="44.25461" lon="6.05463">
        <ele>1495.5999755859</ele>
        <time>2021-05-03T09:10:53Z</time>
      </trkpt>
      <trkpt lat="44.25481" lon="6.0547">
        <ele>1494.4000244141</ele>
        <time>2021-05-03T09:11:08Z</time>
      </trkpt>
      <trkpt lat="44.25501" lon="6.05471">
        <ele>1493</ele>
        <time>2021-05-03T09:11:31Z</time>
      </trkpt>
      <trkpt lat="44.25517" lon="6.05479">
        <ele>1492.1999511719</ele>
        <time>2021-05-03T09:11:46Z</time>
      </trkpt>
      <trkpt lat="44.25538" lon="6.05474">
        <ele>1491.1999511719</ele>
        <time>2021-05-03T09:12:03Z</time>
      </trkpt>
      <trkpt lat="44.25559" lon="6.05455">
        <ele>1491</ele>
        <time>2021-05-03T09:12:19Z</time>
      </trkpt>
      <trkpt lat="44.25577" lon="6.05448">
        <ele>1490.8000488281</ele>
        <time>2021-05-03T09:12:35Z</time>
      </trkpt>
      <trkpt lat="44.25584" lon="6.05447">
        <ele>1490.5999755859</ele>
        <time>2021-05-03T09:12:40Z</time>
      </trkpt>
      <trkpt lat="44.25601" lon="6.05454">
        <ele>1490</ele>
        <time>2021-05-03T09:12:56Z</time>
      </trkpt>
      <trkpt lat="44.25619" lon="6.05453">
        <ele>1489</ele>
        <time>2021-05-03T09:13:18Z</time>
      </trkpt>
      <trkpt lat="44.25636" lon="6.05444">
        <ele>1487.5999755859</ele>
        <time>2021-05-03T09:13:39Z</time>
      </trkpt>
      <trkpt lat="44.25656" lon="6.05463">
        <ele>1486.4000244141</ele>
        <time>2021-05-03T09:13:58Z</time>
      </trkpt>
      <trkpt lat="44.25659" lon="6.05473">
        <ele>1485.8000488281</ele>
        <time>2021-05-03T09:14:07Z</time>
      </trkpt>
      <trkpt lat="44.25664" lon="6.05506">
        <ele>1486.1999511719</ele>
        <time>2021-05-03T09:14:29Z</time>
      </trkpt>
      <trkpt lat="44.25678" lon="6.05526">
        <ele>1487.4000244141</ele>
        <time>2021-05-03T09:14:53Z</time>
      </trkpt>
      <trkpt lat="44.25682" lon="6.05561">
        <ele>1490.4000244141</ele>
        <time>2021-05-03T09:15:19Z</time>
      </trkpt>
      <trkpt lat="44.25694" lon="6.05588">
        <ele>1493.1999511719</ele>
        <time>2021-05-03T09:15:39Z</time>
      </trkpt>
      <trkpt lat="44.257" lon="6.05597">
        <ele>1494.1999511719</ele>
        <time>2021-05-03T09:15:46Z</time>
      </trkpt>
      <trkpt lat="44.25701" lon="6.05605">
        <ele>1494.5999755859</ele>
        <time>2021-05-03T09:15:51Z</time>
      </trkpt>
      <trkpt lat="44.25707" lon="6.05624">
        <ele>1496</ele>
        <time>2021-05-03T09:16:06Z</time>
      </trkpt>
      <trkpt lat="44.25704" lon="6.05628">
        <ele>1496.5999755859</ele>
        <time>2021-05-03T09:16:09Z</time>
      </trkpt>
      <trkpt lat="44.25714" lon="6.05632">
        <ele>1497.5999755859</ele>
        <time>2021-05-03T09:16:23Z</time>
      </trkpt>
      <trkpt lat="44.25721" lon="6.05638">
        <ele>1498.5999755859</ele>
        <time>2021-05-03T09:16:35Z</time>
      </trkpt>
      <trkpt lat="44.25727" lon="6.05655">
        <ele>1500.4000244141</ele>
        <time>2021-05-03T09:16:50Z</time>
      </trkpt>
      <trkpt lat="44.25729" lon="6.05655">
        <ele>1500.4000244141</ele>
        <time>2021-05-03T09:16:51Z</time>
      </trkpt>
      <trkpt lat="44.2574" lon="6.05673">
        <ele>1502.5999755859</ele>
        <time>2021-05-03T09:17:11Z</time>
      </trkpt>
      <trkpt lat="44.25749" lon="6.05674">
        <ele>1503.5999755859</ele>
        <time>2021-05-03T09:17:21Z</time>
      </trkpt>
      <trkpt lat="44.25766" lon="6.0566">
        <ele>1506.5999755859</ele>
        <time>2021-05-03T09:17:45Z</time>
      </trkpt>
      <trkpt lat="44.25785" lon="6.05664">
        <ele>1508.8000488281</ele>
        <time>2021-05-03T09:18:06Z</time>
      </trkpt>
      <trkpt lat="44.25795" lon="6.0568">
        <ele>1511</ele>
        <time>2021-05-03T09:18:26Z</time>
      </trkpt>
      <trkpt lat="44.25806" lon="6.05683">
        <ele>1513.8000488281</ele>
        <time>2021-05-03T09:18:47Z</time>
      </trkpt>
      <trkpt lat="44.2581" lon="6.05685">
        <ele>1514</ele>
        <time>2021-05-03T09:19:01Z</time>
      </trkpt>
      <trkpt lat="44.2581" lon="6.0569">
        <ele>1513.8000488281</ele>
        <time>2021-05-03T09:19:43Z</time>
      </trkpt>
      <trkpt lat="44.25822" lon="6.05681">
        <ele>1515.4000244141</ele>
        <time>2021-05-03T09:20:01Z</time>
      </trkpt>
      <trkpt lat="44.2584" lon="6.05674">
        <ele>1518.1999511719</ele>
        <time>2021-05-03T09:20:25Z</time>
      </trkpt>
      <trkpt lat="44.2586" lon="6.05661">
        <ele>1520.4000244141</ele>
        <time>2021-05-03T09:20:48Z</time>
      </trkpt>
      <trkpt lat="44.25876" lon="6.05653">
        <ele>1521.4000244141</ele>
        <time>2021-05-03T09:21:01Z</time>
      </trkpt>
      <trkpt lat="44.25907" lon="6.05639">
        <ele>1521.8000488281</ele>
        <time>2021-05-03T09:21:24Z</time>
      </trkpt>
      <trkpt lat="44.25935" lon="6.05635">
        <ele>1522.5999755859</ele>
        <time>2021-05-03T09:21:49Z</time>
      </trkpt>
      <trkpt lat="44.25954" lon="6.05634">
        <ele>1524.5999755859</ele>
        <time>2021-05-03T09:22:11Z</time>
      </trkpt>
      <trkpt lat="44.25979" lon="6.0563">
        <ele>1526.1999511719</ele>
        <time>2021-05-03T09:22:33Z</time>
      </trkpt>
      <trkpt lat="44.26006" lon="6.05626">
        <ele>1528.8000488281</ele>
        <time>2021-05-03T09:22:56Z</time>
      </trkpt>
      <trkpt lat="44.26023" lon="6.05615">
        <ele>1531.5999755859</ele>
        <time>2021-05-03T09:23:20Z</time>
      </trkpt>
      <trkpt lat="44.26041" lon="6.05601">
        <ele>1533.1999511719</ele>
        <time>2021-05-03T09:23:42Z</time>
      </trkpt>
      <trkpt lat="44.2606" lon="6.05593">
        <ele>1535.1999511719</ele>
        <time>2021-05-03T09:24:04Z</time>
      </trkpt>
      <trkpt lat="44.26081" lon="6.05595">
        <ele>1537.4000244141</ele>
        <time>2021-05-03T09:24:26Z</time>
      </trkpt>
      <trkpt lat="44.26099" lon="6.05605">
        <ele>1540.4000244141</ele>
        <time>2021-05-03T09:24:46Z</time>
      </trkpt>
      <trkpt lat="44.26108" lon="6.05619">
        <ele>1543.4000244141</ele>
        <time>2021-05-03T09:25:03Z</time>
      </trkpt>
      <trkpt lat="44.26126" lon="6.05631">
        <ele>1546.4000244141</ele>
        <time>2021-05-03T09:25:24Z</time>
      </trkpt>
      <trkpt lat="44.26141" lon="6.0564">
        <ele>1549.1999511719</ele>
        <time>2021-05-03T09:25:46Z</time>
      </trkpt>
      <trkpt lat="44.26154" lon="6.05644">
        <ele>1552.1999511719</ele>
        <time>2021-05-03T09:26:03Z</time>
      </trkpt>
      <trkpt lat="44.26171" lon="6.05649">
        <ele>1555.1999511719</ele>
        <time>2021-05-03T09:26:22Z</time>
      </trkpt>
      <trkpt lat="44.26186" lon="6.05663">
        <ele>1558.1999511719</ele>
        <time>2021-05-03T09:26:43Z</time>
      </trkpt>
      <trkpt lat="44.26201" lon="6.0568">
        <ele>1561</ele>
        <time>2021-05-03T09:27:06Z</time>
      </trkpt>
      <trkpt lat="44.26215" lon="6.057">
        <ele>1564</ele>
        <time>2021-05-03T09:27:27Z</time>
      </trkpt>
      <trkpt lat="44.26229" lon="6.05711">
        <ele>1567</ele>
        <time>2021-05-03T09:27:48Z</time>
      </trkpt>
      <trkpt lat="44.26236" lon="6.05719">
        <ele>1568.1999511719</ele>
        <time>2021-05-03T09:27:58Z</time>
      </trkpt>
      <trkpt lat="44.26248" lon="6.05743">
        <ele>1571.1999511719</ele>
        <time>2021-05-03T09:28:23Z</time>
      </trkpt>
      <trkpt lat="44.26254" lon="6.05764">
        <ele>1573.5999755859</ele>
        <time>2021-05-03T09:28:44Z</time>
      </trkpt>
      <trkpt lat="44.26275" lon="6.05782">
        <ele>1576.1999511719</ele>
        <time>2021-05-03T09:29:08Z</time>
      </trkpt>
      <trkpt lat="44.26292" lon="6.05784">
        <ele>1577.8000488281</ele>
        <time>2021-05-03T09:29:29Z</time>
      </trkpt>
      <trkpt lat="44.26319" lon="6.05799">
        <ele>1579.8000488281</ele>
        <time>2021-05-03T09:29:55Z</time>
      </trkpt>
      <trkpt lat="44.26326" lon="6.05809">
        <ele>1580.5999755859</ele>
        <time>2021-05-03T09:30:05Z</time>
      </trkpt>
      <trkpt lat="44.26337" lon="6.05847">
        <ele>1582.4000244141</ele>
        <time>2021-05-03T09:30:28Z</time>
      </trkpt>
      <trkpt lat="44.26334" lon="6.05858">
        <ele>1583.1999511719</ele>
        <time>2021-05-03T09:30:38Z</time>
      </trkpt>
      <trkpt lat="44.26332" lon="6.05869">
        <ele>1583.5999755859</ele>
        <time>2021-05-03T09:30:47Z</time>
      </trkpt>
      <trkpt lat="44.26337" lon="6.059">
        <ele>1584.8000488281</ele>
        <time>2021-05-03T09:31:09Z</time>
      </trkpt>
      <trkpt lat="44.26338" lon="6.05905">
        <ele>1585.1999511719</ele>
        <time>2021-05-03T09:31:14Z</time>
      </trkpt>
      <trkpt lat="44.26358" lon="6.05918">
        <ele>1587.1999511719</ele>
        <time>2021-05-03T09:31:38Z</time>
      </trkpt>
      <trkpt lat="44.26375" lon="6.05927">
        <ele>1590.1999511719</ele>
        <time>2021-05-03T09:32:01Z</time>
      </trkpt>
      <trkpt lat="44.26392" lon="6.05929">
        <ele>1592.8000488281</ele>
        <time>2021-05-03T09:32:20Z</time>
      </trkpt>
      <trkpt lat="44.2641" lon="6.05924">
        <ele>1595.1999511719</ele>
        <time>2021-05-03T09:32:40Z</time>
      </trkpt>
      <trkpt lat="44.26413" lon="6.05921">
        <ele>1597.4000244141</ele>
        <time>2021-05-03T09:33:01Z</time>
      </trkpt>
      <trkpt lat="44.26427" lon="6.05917">
        <ele>1597.5999755859</ele>
        <time>2021-05-03T09:33:18Z</time>
      </trkpt>
      <trkpt lat="44.26429" lon="6.05916">
        <ele>1598</ele>
        <time>2021-05-03T09:33:20Z</time>
      </trkpt>
      <trkpt lat="44.26449" lon="6.05908">
        <ele>1599.8000488281</ele>
        <time>2021-05-03T09:33:40Z</time>
      </trkpt>
      <trkpt lat="44.2646" lon="6.05899">
        <ele>1601</ele>
        <time>2021-05-03T09:33:54Z</time>
      </trkpt>
      <trkpt lat="44.26467" lon="6.05894">
        <ele>1602.1999511719</ele>
        <time>2021-05-03T09:34:05Z</time>
      </trkpt>
      <trkpt lat="44.26465" lon="6.05887">
        <ele>1603.1999511719</ele>
        <time>2021-05-03T09:34:49Z</time>
      </trkpt>
      <trkpt lat="44.26469" lon="6.05884">
        <ele>1603.4000244141</ele>
        <time>2021-05-03T09:35:09Z</time>
      </trkpt>
      <trkpt lat="44.2647" lon="6.05872">
        <ele>1603.5999755859</ele>
        <time>2021-05-03T09:35:38Z</time>
      </trkpt>
      <trkpt lat="44.26471" lon="6.05884">
        <ele>1603.5999755859</ele>
        <time>2021-05-03T09:36:13Z</time>
      </trkpt>
      <trkpt lat="44.2647" lon="6.05893">
        <ele>1603.5999755859</ele>
        <time>2021-05-03T09:36:33Z</time>
      </trkpt>
      <trkpt lat="44.26481" lon="6.0589">
        <ele>1604.1999511719</ele>
        <time>2021-05-03T09:36:54Z</time>
      </trkpt>
      <trkpt lat="44.26501" lon="6.05876">
        <ele>1606.5999755859</ele>
        <time>2021-05-03T09:37:16Z</time>
      </trkpt>
      <trkpt lat="44.26517" lon="6.05865">
        <ele>1609.5999755859</ele>
        <time>2021-05-03T09:37:42Z</time>
      </trkpt>
      <trkpt lat="44.26539" lon="6.05847">
        <ele>1612.1999511719</ele>
        <time>2021-05-03T09:38:09Z</time>
      </trkpt>
      <trkpt lat="44.26553" lon="6.05847">
        <ele>1614</ele>
        <time>2021-05-03T09:38:25Z</time>
      </trkpt>
      <trkpt lat="44.26559" lon="6.05854">
        <ele>1615.5999755859</ele>
        <time>2021-05-03T09:38:48Z</time>
      </trkpt>
      <trkpt lat="44.26566" lon="6.05872">
        <ele>1617</ele>
        <time>2021-05-03T09:39:06Z</time>
      </trkpt>
      <trkpt lat="44.26555" lon="6.05889">
        <ele>1618.5999755859</ele>
        <time>2021-05-03T09:39:21Z</time>
      </trkpt>
      <trkpt lat="44.26545" lon="6.05896">
        <ele>1619.5999755859</ele>
        <time>2021-05-03T09:39:32Z</time>
      </trkpt>
      <trkpt lat="44.26531" lon="6.05909">
        <ele>1620.5999755859</ele>
        <time>2021-05-03T09:39:50Z</time>
      </trkpt>
      <trkpt lat="44.2653" lon="6.05914">
        <ele>1621.8000488281</ele>
        <time>2021-05-03T09:40:06Z</time>
      </trkpt>
      <trkpt lat="44.26523" lon="6.0591">
        <ele>1622.1999511719</ele>
        <time>2021-05-03T09:40:30Z</time>
      </trkpt>
      <trkpt lat="44.26514" lon="6.05926">
        <ele>1623.1999511719</ele>
        <time>2021-05-03T09:40:54Z</time>
      </trkpt>
      <trkpt lat="44.26526" lon="6.05958">
        <ele>1625.8000488281</ele>
        <time>2021-05-03T09:41:19Z</time>
      </trkpt>
      <trkpt lat="44.26535" lon="6.05976">
        <ele>1627.4000244141</ele>
        <time>2021-05-03T09:41:39Z</time>
      </trkpt>
      <trkpt lat="44.26537" lon="6.05978">
        <ele>1627.8000488281</ele>
        <time>2021-05-03T09:41:56Z</time>
      </trkpt>
      <trkpt lat="44.26548" lon="6.05987">
        <ele>1628</ele>
        <time>2021-05-03T09:42:12Z</time>
      </trkpt>
      <trkpt lat="44.26566" lon="6.05995">
        <ele>1630.1999511719</ele>
        <time>2021-05-03T09:42:36Z</time>
      </trkpt>
      <trkpt lat="44.26595" lon="6.06006">
        <ele>1633.1999511719</ele>
        <time>2021-05-03T09:43:01Z</time>
      </trkpt>
      <trkpt lat="44.26622" lon="6.06021">
        <ele>1636.1999511719</ele>
        <time>2021-05-03T09:43:26Z</time>
      </trkpt>
      <trkpt lat="44.26642" lon="6.06012">
        <ele>1639.4000244141</ele>
        <time>2021-05-03T09:43:47Z</time>
      </trkpt>
      <trkpt lat="44.26666" lon="6.06">
        <ele>1642.1999511719</ele>
        <time>2021-05-03T09:44:14Z</time>
      </trkpt>
      <trkpt lat="44.26684" lon="6.05974">
        <ele>1645</ele>
        <time>2021-05-03T09:44:37Z</time>
      </trkpt>
      <trkpt lat="44.26694" lon="6.05965">
        <ele>1646.5999755859</ele>
        <time>2021-05-03T09:44:53Z</time>
      </trkpt>
      <trkpt lat="44.26721" lon="6.05956">
        <ele>1648.8000488281</ele>
        <time>2021-05-03T09:45:12Z</time>
      </trkpt>
      <trkpt lat="44.26734" lon="6.05978">
        <ele>1650.5999755859</ele>
        <time>2021-05-03T09:45:30Z</time>
      </trkpt>
      <trkpt lat="44.26732" lon="6.06001">
        <ele>1652.5999755859</ele>
        <time>2021-05-03T09:45:52Z</time>
      </trkpt>
      <trkpt lat="44.26725" lon="6.06027">
        <ele>1655.5999755859</ele>
        <time>2021-05-03T09:46:17Z</time>
      </trkpt>
      <trkpt lat="44.26729" lon="6.06044">
        <ele>1657.4000244141</ele>
        <time>2021-05-03T09:46:38Z</time>
      </trkpt>
      <trkpt lat="44.26727" lon="6.06056">
        <ele>1658.4000244141</ele>
        <time>2021-05-03T09:47:01Z</time>
      </trkpt>
      <trkpt lat="44.26736" lon="6.06054">
        <ele>1658.1999511719</ele>
        <time>2021-05-03T09:47:17Z</time>
      </trkpt>
      <trkpt lat="44.26739" lon="6.06051">
        <ele>1657.4000244141</ele>
        <time>2021-05-03T09:47:57Z</time>
      </trkpt>
      <trkpt lat="44.26717" lon="6.06054">
        <ele>1658.5999755859</ele>
        <time>2021-05-03T09:48:22Z</time>
      </trkpt>
      <trkpt lat="44.26705" lon="6.06055">
        <ele>1661.1999511719</ele>
        <time>2021-05-03T09:48:44Z</time>
      </trkpt>
      <trkpt lat="44.26691" lon="6.06047">
        <ele>1660.1999511719</ele>
        <time>2021-05-03T09:49:06Z</time>
      </trkpt>
      <trkpt lat="44.26681" lon="6.06062">
        <ele>1660.4000244141</ele>
        <time>2021-05-03T09:49:27Z</time>
      </trkpt>
      <trkpt lat="44.26661" lon="6.06085">
        <ele>1660.5999755859</ele>
        <time>2021-05-03T09:49:51Z</time>
      </trkpt>
      <trkpt lat="44.26632" lon="6.06114">
        <ele>1663.4000244141</ele>
        <time>2021-05-03T09:50:17Z</time>
      </trkpt>
      <trkpt lat="44.26624" lon="6.06121">
        <ele>1664.4000244141</ele>
        <time>2021-05-03T09:50:28Z</time>
      </trkpt>
      <trkpt lat="44.26606" lon="6.06127">
        <ele>1667</ele>
        <time>2021-05-03T09:50:49Z</time>
      </trkpt>
      <trkpt lat="44.26589" lon="6.06136">
        <ele>1669.5999755859</ele>
        <time>2021-05-03T09:51:11Z</time>
      </trkpt>
      <trkpt lat="44.26575" lon="6.0615">
        <ele>1672.5999755859</ele>
        <time>2021-05-03T09:51:31Z</time>
      </trkpt>
      <trkpt lat="44.2656" lon="6.06173">
        <ele>1675.5999755859</ele>
        <time>2021-05-03T09:51:55Z</time>
      </trkpt>
      <trkpt lat="44.26548" lon="6.06198">
        <ele>1678.8000488281</ele>
        <time>2021-05-03T09:52:18Z</time>
      </trkpt>
      <trkpt lat="44.26541" lon="6.06221">
        <ele>1680.8000488281</ele>
        <time>2021-05-03T09:52:39Z</time>
      </trkpt>
      <trkpt lat="44.26526" lon="6.06249">
        <ele>1683.4000244141</ele>
        <time>2021-05-03T09:53:03Z</time>
      </trkpt>
      <trkpt lat="44.26513" lon="6.0627">
        <ele>1685.8000488281</ele>
        <time>2021-05-03T09:53:25Z</time>
      </trkpt>
      <trkpt lat="44.26509" lon="6.06274">
        <ele>1686.8000488281</ele>
        <time>2021-05-03T09:53:31Z</time>
      </trkpt>
      <trkpt lat="44.26498" lon="6.06294">
        <ele>1690</ele>
        <time>2021-05-03T09:53:50Z</time>
      </trkpt>
      <trkpt lat="44.26509" lon="6.06312">
        <ele>1691.8000488281</ele>
        <time>2021-05-03T09:54:09Z</time>
      </trkpt>
      <trkpt lat="44.26525" lon="6.06334">
        <ele>1694.5999755859</ele>
        <time>2021-05-03T09:54:36Z</time>
      </trkpt>
      <trkpt lat="44.2655" lon="6.06334">
        <ele>1697.5999755859</ele>
        <time>2021-05-03T09:55:01Z</time>
      </trkpt>
      <trkpt lat="44.26568" lon="6.06328">
        <ele>1699.8000488281</ele>
        <time>2021-05-03T09:55:24Z</time>
      </trkpt>
      <trkpt lat="44.26594" lon="6.06338">
        <ele>1702.4000244141</ele>
        <time>2021-05-03T09:55:52Z</time>
      </trkpt>
      <trkpt lat="44.26614" lon="6.06353">
        <ele>1705</ele>
        <time>2021-05-03T09:56:13Z</time>
      </trkpt>
      <trkpt lat="44.26627" lon="6.06384">
        <ele>1707.8000488281</ele>
        <time>2021-05-03T09:56:39Z</time>
      </trkpt>
      <trkpt lat="44.26621" lon="6.06411">
        <ele>1710.8000488281</ele>
        <time>2021-05-03T09:57:05Z</time>
      </trkpt>
      <trkpt lat="44.26618" lon="6.06409">
        <ele>1712</ele>
        <time>2021-05-03T09:57:37Z</time>
      </trkpt>
      <trkpt lat="44.2661" lon="6.06418">
        <ele>1712.4000244141</ele>
        <time>2021-05-03T09:57:53Z</time>
      </trkpt>
      <trkpt lat="44.26592" lon="6.06436">
        <ele>1714.5999755859</ele>
        <time>2021-05-03T09:58:14Z</time>
      </trkpt>
      <trkpt lat="44.26577" lon="6.06446">
        <ele>1715.8000488281</ele>
        <time>2021-05-03T09:58:39Z</time>
      </trkpt>
      <trkpt lat="44.26558" lon="6.06469">
        <ele>1717.5999755859</ele>
        <time>2021-05-03T09:59:01Z</time>
      </trkpt>
      <trkpt lat="44.26543" lon="6.06486">
        <ele>1719.4000244141</ele>
        <time>2021-05-03T09:59:25Z</time>
      </trkpt>
      <trkpt lat="44.26526" lon="6.06494">
        <ele>1721.5999755859</ele>
        <time>2021-05-03T09:59:45Z</time>
      </trkpt>
      <trkpt lat="44.26525" lon="6.06492">
        <ele>1722.1999511719</ele>
        <time>2021-05-03T09:59:49Z</time>
      </trkpt>
      <trkpt lat="44.26511" lon="6.06491">
        <ele>1724.4000244141</ele>
        <time>2021-05-03T10:00:11Z</time>
      </trkpt>
      <trkpt lat="44.26489" lon="6.06498">
        <ele>1726.8000488281</ele>
        <time>2021-05-03T10:00:29Z</time>
      </trkpt>
      <trkpt lat="44.26475" lon="6.06501">
        <ele>1730</ele>
        <time>2021-05-03T10:00:47Z</time>
      </trkpt>
      <trkpt lat="44.26467" lon="6.06502">
        <ele>1733</ele>
        <time>2021-05-03T10:01:02Z</time>
      </trkpt>
      <trkpt lat="44.26451" lon="6.06505">
        <ele>1736.1999511719</ele>
        <time>2021-05-03T10:01:25Z</time>
      </trkpt>
      <trkpt lat="44.26433" lon="6.06512">
        <ele>1739.1999511719</ele>
        <time>2021-05-03T10:01:48Z</time>
      </trkpt>
      <trkpt lat="44.26416" lon="6.06517">
        <ele>1742</ele>
        <time>2021-05-03T10:02:12Z</time>
      </trkpt>
      <trkpt lat="44.26401" lon="6.06527">
        <ele>1745.1999511719</ele>
        <time>2021-05-03T10:02:34Z</time>
      </trkpt>
      <trkpt lat="44.26392" lon="6.06518">
        <ele>1747.5999755859</ele>
        <time>2021-05-03T10:02:53Z</time>
      </trkpt>
      <trkpt lat="44.26389" lon="6.0653">
        <ele>1747.5999755859</ele>
        <time>2021-05-03T10:03:31Z</time>
      </trkpt>
      <trkpt lat="44.26392" lon="6.06533">
        <ele>1748.8000488281</ele>
        <time>2021-05-03T10:03:50Z</time>
      </trkpt>
      <trkpt lat="44.26396" lon="6.06541">
        <ele>1749.1999511719</ele>
        <time>2021-05-03T10:03:59Z</time>
      </trkpt>
      <trkpt lat="44.26402" lon="6.06568">
        <ele>1752.1999511719</ele>
        <time>2021-05-03T10:04:21Z</time>
      </trkpt>
      <trkpt lat="44.26398" lon="6.06602">
        <ele>1754.8000488281</ele>
        <time>2021-05-03T10:04:46Z</time>
      </trkpt>
      <trkpt lat="44.26397" lon="6.06636">
        <ele>1757.5999755859</ele>
        <time>2021-05-03T10:05:09Z</time>
      </trkpt>
      <trkpt lat="44.26387" lon="6.06669">
        <ele>1760.8000488281</ele>
        <time>2021-05-03T10:05:34Z</time>
      </trkpt>
      <trkpt lat="44.26378" lon="6.06703">
        <ele>1763.8000488281</ele>
        <time>2021-05-03T10:06:00Z</time>
      </trkpt>
      <trkpt lat="44.26376" lon="6.06709">
        <ele>1764.4000244141</ele>
        <time>2021-05-03T10:06:05Z</time>
      </trkpt>
      <trkpt lat="44.26377" lon="6.06711">
        <ele>1764.5999755859</ele>
        <time>2021-05-03T10:06:07Z</time>
      </trkpt>
      <trkpt lat="44.26376" lon="6.06711">
        <ele>1765.5999755859</ele>
        <time>2021-05-03T10:06:30Z</time>
      </trkpt>
      <trkpt lat="44.26382" lon="6.06712">
        <ele>1765.8000488281</ele>
        <time>2021-05-03T10:06:48Z</time>
      </trkpt>
      <trkpt lat="44.26386" lon="6.06708">
        <ele>1765.5999755859</ele>
        <time>2021-05-03T10:07:28Z</time>
      </trkpt>
      <trkpt lat="44.26386" lon="6.06709">
        <ele>1765.4000244141</ele>
        <time>2021-05-03T10:07:52Z</time>
      </trkpt>
      <trkpt lat="44.2638" lon="6.06701">
        <ele>1764.4000244141</ele>
        <time>2021-05-03T10:08:34Z</time>
      </trkpt>
      <trkpt lat="44.26377" lon="6.06706">
        <ele>1764.5999755859</ele>
        <time>2021-05-03T10:09:29Z</time>
      </trkpt>
      <trkpt lat="44.26386" lon="6.06697">
        <ele>1765</ele>
        <time>2021-05-03T10:10:53Z</time>
      </trkpt>
      <trkpt lat="44.26382" lon="6.06706">
        <ele>1765.1999511719</ele>
        <time>2021-05-03T10:12:00Z</time>
      </trkpt>
      <trkpt lat="44.26383" lon="6.06694">
        <ele>1765</ele>
        <time>2021-05-03T10:13:01Z</time>
      </trkpt>
      <trkpt lat="44.26386" lon="6.06701">
        <ele>1764.8000488281</ele>
        <time>2021-05-03T10:13:59Z</time>
      </trkpt>
      <trkpt lat="44.26388" lon="6.06701">
        <ele>1765.1999511719</ele>
        <time>2021-05-03T10:14:59Z</time>
      </trkpt>
      <trkpt lat="44.26386" lon="6.06698">
        <ele>1765.4000244141</ele>
        <time>2021-05-03T10:15:32Z</time>
      </trkpt>
      <trkpt lat="44.26383" lon="6.0671">
        <ele>1766.1999511719</ele>
        <time>2021-05-03T10:15:48Z</time>
      </trkpt>
      <trkpt lat="44.2638" lon="6.06724">
        <ele>1767.1999511719</ele>
        <time>2021-05-03T10:16:10Z</time>
      </trkpt>
      <trkpt lat="44.2637" lon="6.06741">
        <ele>1768.1999511719</ele>
        <time>2021-05-03T10:16:29Z</time>
      </trkpt>
      <trkpt lat="44.26362" lon="6.06761">
        <ele>1770</ele>
        <time>2021-05-03T10:16:49Z</time>
      </trkpt>
      <trkpt lat="44.26354" lon="6.06779">
        <ele>1772.5999755859</ele>
        <time>2021-05-03T10:17:11Z</time>
      </trkpt>
      <trkpt lat="44.26341" lon="6.06793">
        <ele>1775</ele>
        <time>2021-05-03T10:17:32Z</time>
      </trkpt>
      <trkpt lat="44.26335" lon="6.06791">
        <ele>1776.4000244141</ele>
        <time>2021-05-03T10:17:52Z</time>
      </trkpt>
      <trkpt lat="44.26312" lon="6.06795">
        <ele>1779.5999755859</ele>
        <time>2021-05-03T10:18:18Z</time>
      </trkpt>
      <trkpt lat="44.26312" lon="6.06797">
        <ele>1780</ele>
        <time>2021-05-03T10:18:21Z</time>
      </trkpt>
      <trkpt lat="44.26296" lon="6.06802">
        <ele>1783.1999511719</ele>
        <time>2021-05-03T10:18:45Z</time>
      </trkpt>
      <trkpt lat="44.26284" lon="6.06805">
        <ele>1786.1999511719</ele>
        <time>2021-05-03T10:19:04Z</time>
      </trkpt>
      <trkpt lat="44.26267" lon="6.06808">
        <ele>1789.4000244141</ele>
        <time>2021-05-03T10:19:28Z</time>
      </trkpt>
      <trkpt lat="44.26252" lon="6.06808">
        <ele>1792.4000244141</ele>
        <time>2021-05-03T10:19:53Z</time>
      </trkpt>
      <trkpt lat="44.26238" lon="6.06814">
        <ele>1795.4000244141</ele>
        <time>2021-05-03T10:20:14Z</time>
      </trkpt>
      <trkpt lat="44.26224" lon="6.06811">
        <ele>1798.4000244141</ele>
        <time>2021-05-03T10:20:40Z</time>
      </trkpt>
      <trkpt lat="44.26204" lon="6.06813">
        <ele>1801.4000244141</ele>
        <time>2021-05-03T10:21:08Z</time>
      </trkpt>
      <trkpt lat="44.26189" lon="6.06826">
        <ele>1804.4000244141</ele>
        <time>2021-05-03T10:21:32Z</time>
      </trkpt>
      <trkpt lat="44.26188" lon="6.06826">
        <ele>1804.8000488281</ele>
        <time>2021-05-03T10:21:34Z</time>
      </trkpt>
      <trkpt lat="44.26176" lon="6.06823">
        <ele>1808</ele>
        <time>2021-05-03T10:21:58Z</time>
      </trkpt>
      <trkpt lat="44.26165" lon="6.06828">
        <ele>1811.1999511719</ele>
        <time>2021-05-03T10:22:19Z</time>
      </trkpt>
      <trkpt lat="44.26155" lon="6.06838">
        <ele>1814.4000244141</ele>
        <time>2021-05-03T10:22:43Z</time>
      </trkpt>
      <trkpt lat="44.26139" lon="6.06849">
        <ele>1817.5999755859</ele>
        <time>2021-05-03T10:23:03Z</time>
      </trkpt>
      <trkpt lat="44.26132" lon="6.06854">
        <ele>1819.4000244141</ele>
        <time>2021-05-03T10:23:26Z</time>
      </trkpt>
      <trkpt lat="44.26118" lon="6.06867">
        <ele>1822.4000244141</ele>
        <time>2021-05-03T10:23:54Z</time>
      </trkpt>
      <trkpt lat="44.2611" lon="6.06891">
        <ele>1824.1999511719</ele>
        <time>2021-05-03T10:24:19Z</time>
      </trkpt>
      <trkpt lat="44.26094" lon="6.06908">
        <ele>1822.1999511719</ele>
        <time>2021-05-03T10:24:42Z</time>
      </trkpt>
      <trkpt lat="44.26087" lon="6.0691">
        <ele>1822.8000488281</ele>
        <time>2021-05-03T10:25:03Z</time>
      </trkpt>
      <trkpt lat="44.26084" lon="6.06914">
        <ele>1824.5999755859</ele>
        <time>2021-05-03T10:25:22Z</time>
      </trkpt>
      <trkpt lat="44.26083" lon="6.06919">
        <ele>1824.5999755859</ele>
        <time>2021-05-03T10:25:33Z</time>
      </trkpt>
      <trkpt lat="44.26077" lon="6.06934">
        <ele>1824.5999755859</ele>
        <time>2021-05-03T10:25:49Z</time>
      </trkpt>
      <trkpt lat="44.26069" lon="6.06943">
        <ele>1825.1999511719</ele>
        <time>2021-05-03T10:26:05Z</time>
      </trkpt>
      <trkpt lat="44.26061" lon="6.06953">
        <ele>1825.8000488281</ele>
        <time>2021-05-03T10:26:17Z</time>
      </trkpt>
      <trkpt lat="44.26053" lon="6.06971">
        <ele>1827</ele>
        <time>2021-05-03T10:26:35Z</time>
      </trkpt>
      <trkpt lat="44.26036" lon="6.0699">
        <ele>1829.1999511719</ele>
        <time>2021-05-03T10:26:55Z</time>
      </trkpt>
      <trkpt lat="44.26016" lon="6.06996">
        <ele>1830.8000488281</ele>
        <time>2021-05-03T10:27:10Z</time>
      </trkpt>
      <trkpt lat="44.26011" lon="6.07">
        <ele>1831.8000488281</ele>
        <time>2021-05-03T10:27:19Z</time>
      </trkpt>
      <trkpt lat="44.26014" lon="6.07018">
        <ele>1833</ele>
        <time>2021-05-03T10:27:32Z</time>
      </trkpt>
      <trkpt lat="44.26014" lon="6.07027">
        <ele>1833.1999511719</ele>
        <time>2021-05-03T10:27:42Z</time>
      </trkpt>
      <trkpt lat="44.26008" lon="6.07032">
        <ele>1833.8000488281</ele>
        <time>2021-05-03T10:27:48Z</time>
      </trkpt>
      <trkpt lat="44.25995" lon="6.07044">
        <ele>1837</ele>
        <time>2021-05-03T10:28:08Z</time>
      </trkpt>
      <trkpt lat="44.25996" lon="6.07046">
        <ele>1838.4000244141</ele>
        <time>2021-05-03T10:28:32Z</time>
      </trkpt>
      <trkpt lat="44.25986" lon="6.07053">
        <ele>1840</ele>
        <time>2021-05-03T10:28:54Z</time>
      </trkpt>
      <trkpt lat="44.25979" lon="6.07065">
        <ele>1843</ele>
        <time>2021-05-03T10:29:24Z</time>
      </trkpt>
      <trkpt lat="44.25972" lon="6.07066">
        <ele>1846.1999511719</ele>
        <time>2021-05-03T10:29:42Z</time>
      </trkpt>
      <trkpt lat="44.25971" lon="6.07069">
        <ele>1847.1999511719</ele>
        <time>2021-05-03T10:30:11Z</time>
      </trkpt>
      <trkpt lat="44.25969" lon="6.07072">
        <ele>1847.1999511719</ele>
        <time>2021-05-03T10:30:37Z</time>
      </trkpt>
      <trkpt lat="44.25972" lon="6.07094">
        <ele>1846.4000244141</ele>
        <time>2021-05-03T10:30:57Z</time>
      </trkpt>
      <trkpt lat="44.25977" lon="6.0712">
        <ele>1844.1999511719</ele>
        <time>2021-05-03T10:31:17Z</time>
      </trkpt>
      <trkpt lat="44.25977" lon="6.07125">
        <ele>1844</ele>
        <time>2021-05-03T10:31:20Z</time>
      </trkpt>
      <trkpt lat="44.2598" lon="6.07148">
        <ele>1842.4000244141</ele>
        <time>2021-05-03T10:31:37Z</time>
      </trkpt>
      <trkpt lat="44.25994" lon="6.0716">
        <ele>1841</ele>
        <time>2021-05-03T10:31:56Z</time>
      </trkpt>
      <trkpt lat="44.26002" lon="6.07174">
        <ele>1840.8000488281</ele>
        <time>2021-05-03T10:32:12Z</time>
      </trkpt>
      <trkpt lat="44.26009" lon="6.07184">
        <ele>1841</ele>
        <time>2021-05-03T10:32:20Z</time>
      </trkpt>
      <trkpt lat="44.26025" lon="6.07193">
        <ele>1841.5999755859</ele>
        <time>2021-05-03T10:32:39Z</time>
      </trkpt>
      <trkpt lat="44.26036" lon="6.07201">
        <ele>1842.8000488281</ele>
        <time>2021-05-03T10:32:56Z</time>
      </trkpt>
      <trkpt lat="44.26051" lon="6.07195">
        <ele>1843.8000488281</ele>
        <time>2021-05-03T10:33:15Z</time>
      </trkpt>
      <trkpt lat="44.26065" lon="6.07183">
        <ele>1844</ele>
        <time>2021-05-03T10:33:39Z</time>
      </trkpt>
      <trkpt lat="44.26061" lon="6.07185">
        <ele>1843.8000488281</ele>
        <time>2021-05-03T10:33:58Z</time>
      </trkpt>
      <trkpt lat="44.26053" lon="6.07177">
        <ele>1844.5999755859</ele>
        <time>2021-05-03T10:34:18Z</time>
      </trkpt>
      <trkpt lat="44.2605" lon="6.07178">
        <ele>1845</ele>
        <time>2021-05-03T10:34:54Z</time>
      </trkpt>
      <trkpt lat="44.26054" lon="6.07177">
        <ele>1845.4000244141</ele>
        <time>2021-05-03T10:35:22Z</time>
      </trkpt>
      <trkpt lat="44.26059" lon="6.07175">
        <ele>1845.5999755859</ele>
        <time>2021-05-03T10:36:05Z</time>
      </trkpt>
      <trkpt lat="44.26054" lon="6.07178">
        <ele>1845.4000244141</ele>
        <time>2021-05-03T10:36:27Z</time>
      </trkpt>
      <trkpt lat="44.26051" lon="6.07187">
        <ele>1844.8000488281</ele>
        <time>2021-05-03T10:36:49Z</time>
      </trkpt>
      <trkpt lat="44.26048" lon="6.07189">
        <ele>1844.8000488281</ele>
        <time>2021-05-03T10:37:26Z</time>
      </trkpt>
      <trkpt lat="44.26048" lon="6.07189">
        <ele>1845</ele>
        <time>2021-05-03T10:38:08Z</time>
      </trkpt>
      <trkpt lat="44.26049" lon="6.07188">
        <ele>1843.8000488281</ele>
        <time>2021-05-03T10:38:25Z</time>
      </trkpt>
      <trkpt lat="44.26049" lon="6.07188">
        <ele>1843.8000488281</ele>
        <time>2021-05-03T10:39:19Z</time>
      </trkpt>
      <trkpt lat="44.26049" lon="6.07187">
        <ele>1843.5999755859</ele>
        <time>2021-05-03T10:39:50Z</time>
      </trkpt>
      <trkpt lat="44.26048" lon="6.07188">
        <ele>1843.5999755859</ele>
        <time>2021-05-03T10:41:03Z</time>
      </trkpt>
      <trkpt lat="44.26049" lon="6.07187">
        <ele>1843.4000244141</ele>
        <time>2021-05-03T10:43:03Z</time>
      </trkpt>
      <trkpt lat="44.26049" lon="6.07187">
        <ele>1843.5999755859</ele>
        <time>2021-05-03T10:44:40Z</time>
      </trkpt>
      <trkpt lat="44.26049" lon="6.07187">
        <ele>1843.4000244141</ele>
        <time>2021-05-03T10:46:11Z</time>
      </trkpt>
      <trkpt lat="44.26048" lon="6.07187">
        <ele>1843.1999511719</ele>
        <time>2021-05-03T10:49:31Z</time>
      </trkpt>
      <trkpt lat="44.26049" lon="6.07187">
        <ele>1842.8000488281</ele>
        <time>2021-05-03T10:52:33Z</time>
      </trkpt>
      <trkpt lat="44.2605" lon="6.07186">
        <ele>1842.8000488281</ele>
        <time>2021-05-03T10:55:12Z</time>
      </trkpt>
      <trkpt lat="44.2605" lon="6.07185">
        <ele>1843</ele>
        <time>2021-05-03T10:57:04Z</time>
      </trkpt>
      <trkpt lat="44.26047" lon="6.07184">
        <ele>1842.8000488281</ele>
        <time>2021-05-03T10:58:44Z</time>
      </trkpt>
      <trkpt lat="44.26048" lon="6.07184">
        <ele>1843.4000244141</ele>
        <time>2021-05-03T11:00:05Z</time>
      </trkpt>
      <trkpt lat="44.26048" lon="6.07186">
        <ele>1843.4000244141</ele>
        <time>2021-05-03T11:02:27Z</time>
      </trkpt>
      <trkpt lat="44.26048" lon="6.07187">
        <ele>1844.1999511719</ele>
        <time>2021-05-03T11:16:36Z</time>
      </trkpt>
      <trkpt lat="44.2605" lon="6.0719">
        <ele>1844.4000244141</ele>
        <time>2021-05-03T11:17:52Z</time>
      </trkpt>
      <trkpt lat="44.26047" lon="6.07188">
        <ele>1844.4000244141</ele>
        <time>2021-05-03T11:18:23Z</time>
      </trkpt>
      <trkpt lat="44.26047" lon="6.07189">
        <ele>1845.5999755859</ele>
        <time>2021-05-03T11:19:13Z</time>
      </trkpt>
      <trkpt lat="44.26049" lon="6.07189">
        <ele>1845.1999511719</ele>
        <time>2021-05-03T11:19:44Z</time>
      </trkpt>
      <trkpt lat="44.26047" lon="6.07189">
        <ele>1845.4000244141</ele>
        <time>2021-05-03T11:20:13Z</time>
      </trkpt>
      <trkpt lat="44.2604" lon="6.07192">
        <ele>1845.4000244141</ele>
        <time>2021-05-03T11:20:31Z</time>
      </trkpt>
      <trkpt lat="44.26037" lon="6.07195">
        <ele>1845.1999511719</ele>
        <time>2021-05-03T11:20:37Z</time>
      </trkpt>
      <trkpt lat="44.26027" lon="6.07204">
        <ele>1844</ele>
        <time>2021-05-03T11:20:53Z</time>
      </trkpt>
      <trkpt lat="44.26019" lon="6.07209">
        <ele>1842.8000488281</ele>
        <time>2021-05-03T11:21:16Z</time>
      </trkpt>
      <trkpt lat="44.26009" lon="6.07213">
        <ele>1842.1999511719</ele>
        <time>2021-05-03T11:21:27Z</time>
      </trkpt>
      <trkpt lat="44.26001" lon="6.07213">
        <ele>1842</ele>
        <time>2021-05-03T11:21:36Z</time>
      </trkpt>
      <trkpt lat="44.25999" lon="6.07213">
        <ele>1842</ele>
        <time>2021-05-03T11:21:38Z</time>
      </trkpt>
      <trkpt lat="44.25985" lon="6.07219">
        <ele>1842.5999755859</ele>
        <time>2021-05-03T11:21:53Z</time>
      </trkpt>
      <trkpt lat="44.25974" lon="6.07224">
        <ele>1843.4000244141</ele>
        <time>2021-05-03T11:22:07Z</time>
      </trkpt>
      <trkpt lat="44.25964" lon="6.07235">
        <ele>1844.5999755859</ele>
        <time>2021-05-03T11:22:25Z</time>
      </trkpt>
      <trkpt lat="44.25955" lon="6.07248">
        <ele>1845.8000488281</ele>
        <time>2021-05-03T11:22:41Z</time>
      </trkpt>
      <trkpt lat="44.25943" lon="6.07261">
        <ele>1848</ele>
        <time>2021-05-03T11:23:05Z</time>
      </trkpt>
      <trkpt lat="44.25939" lon="6.07264">
        <ele>1849.1999511719</ele>
        <time>2021-05-03T11:23:30Z</time>
      </trkpt>
      <trkpt lat="44.25931" lon="6.07269">
        <ele>1850.5999755859</ele>
        <time>2021-05-03T11:23:51Z</time>
      </trkpt>
      <trkpt lat="44.25919" lon="6.07267">
        <ele>1852.5999755859</ele>
        <time>2021-05-03T11:24:12Z</time>
      </trkpt>
      <trkpt lat="44.25914" lon="6.07272">
        <ele>1855.5999755859</ele>
        <time>2021-05-03T11:24:30Z</time>
      </trkpt>
      <trkpt lat="44.25904" lon="6.07272">
        <ele>1858.5999755859</ele>
        <time>2021-05-03T11:24:50Z</time>
      </trkpt>
      <trkpt lat="44.25897" lon="6.07276">
        <ele>1861.5999755859</ele>
        <time>2021-05-03T11:25:09Z</time>
      </trkpt>
      <trkpt lat="44.25896" lon="6.07287">
        <ele>1864.8000488281</ele>
        <time>2021-05-03T11:25:27Z</time>
      </trkpt>
      <trkpt lat="44.25895" lon="6.07303">
        <ele>1867.1999511719</ele>
        <time>2021-05-03T11:25:47Z</time>
      </trkpt>
      <trkpt lat="44.2589" lon="6.07316">
        <ele>1869.5999755859</ele>
        <time>2021-05-03T11:26:05Z</time>
      </trkpt>
      <trkpt lat="44.25878" lon="6.07319">
        <ele>1872</ele>
        <time>2021-05-03T11:26:26Z</time>
      </trkpt>
      <trkpt lat="44.25864" lon="6.07319">
        <ele>1875</ele>
        <time>2021-05-03T11:26:50Z</time>
      </trkpt>
      <trkpt lat="44.25852" lon="6.07319">
        <ele>1877.5999755859</ele>
        <time>2021-05-03T11:27:10Z</time>
      </trkpt>
      <trkpt lat="44.25839" lon="6.07314">
        <ele>1880.5999755859</ele>
        <time>2021-05-03T11:27:29Z</time>
      </trkpt>
      <trkpt lat="44.25829" lon="6.07311">
        <ele>1882.5999755859</ele>
        <time>2021-05-03T11:27:44Z</time>
      </trkpt>
      <trkpt lat="44.25819" lon="6.07309">
        <ele>1884.4000244141</ele>
        <time>2021-05-03T11:27:59Z</time>
      </trkpt>
      <trkpt lat="44.25809" lon="6.07304">
        <ele>1887.1999511719</ele>
        <time>2021-05-03T11:28:17Z</time>
      </trkpt>
      <trkpt lat="44.25799" lon="6.07299">
        <ele>1890.1999511719</ele>
        <time>2021-05-03T11:28:37Z</time>
      </trkpt>
      <trkpt lat="44.25793" lon="6.07295">
        <ele>1891.5999755859</ele>
        <time>2021-05-03T11:29:15Z</time>
      </trkpt>
      <trkpt lat="44.2578" lon="6.07283">
        <ele>1893.8000488281</ele>
        <time>2021-05-03T11:29:34Z</time>
      </trkpt>
      <trkpt lat="44.25769" lon="6.07275">
        <ele>1896</ele>
        <time>2021-05-03T11:29:52Z</time>
      </trkpt>
      <trkpt lat="44.25758" lon="6.07274">
        <ele>1899.1999511719</ele>
        <time>2021-05-03T11:30:10Z</time>
      </trkpt>
      <trkpt lat="44.25748" lon="6.07279">
        <ele>1902.1999511719</ele>
        <time>2021-05-03T11:30:27Z</time>
      </trkpt>
      <trkpt lat="44.25734" lon="6.07282">
        <ele>1904.5999755859</ele>
        <time>2021-05-03T11:30:48Z</time>
      </trkpt>
      <trkpt lat="44.25724" lon="6.07281">
        <ele>1907.8000488281</ele>
        <time>2021-05-03T11:31:08Z</time>
      </trkpt>
      <trkpt lat="44.25717" lon="6.0728">
        <ele>1910.5999755859</ele>
        <time>2021-05-03T11:31:35Z</time>
      </trkpt>
      <trkpt lat="44.25704" lon="6.07275">
        <ele>1912.4000244141</ele>
        <time>2021-05-03T11:31:58Z</time>
      </trkpt>
      <trkpt lat="44.25698" lon="6.07261">
        <ele>1915</ele>
        <time>2021-05-03T11:32:16Z</time>
      </trkpt>
      <trkpt lat="44.25694" lon="6.07245">
        <ele>1918</ele>
        <time>2021-05-03T11:32:35Z</time>
      </trkpt>
      <trkpt lat="44.25687" lon="6.0723">
        <ele>1921</ele>
        <time>2021-05-03T11:32:56Z</time>
      </trkpt>
      <trkpt lat="44.25681" lon="6.07217">
        <ele>1922.8000488281</ele>
        <time>2021-05-03T11:33:14Z</time>
      </trkpt>
      <trkpt lat="44.25674" lon="6.07203">
        <ele>1924.8000488281</ele>
        <time>2021-05-03T11:33:32Z</time>
      </trkpt>
      <trkpt lat="44.2566" lon="6.07196">
        <ele>1927.5999755859</ele>
        <time>2021-05-03T11:33:57Z</time>
      </trkpt>
      <trkpt lat="44.25649" lon="6.07196">
        <ele>1930.4000244141</ele>
        <time>2021-05-03T11:34:17Z</time>
      </trkpt>
      <trkpt lat="44.25642" lon="6.07193">
        <ele>1933.4000244141</ele>
        <time>2021-05-03T11:34:34Z</time>
      </trkpt>
      <trkpt lat="44.2564" lon="6.07189">
        <ele>1936.1999511719</ele>
        <time>2021-05-03T11:34:55Z</time>
      </trkpt>
      <trkpt lat="44.2564" lon="6.07175">
        <ele>1937.5999755859</ele>
        <time>2021-05-03T11:35:14Z</time>
      </trkpt>
      <trkpt lat="44.25631" lon="6.07178">
        <ele>1940.5999755859</ele>
        <time>2021-05-03T11:35:32Z</time>
      </trkpt>
      <trkpt lat="44.25621" lon="6.07181">
        <ele>1943.5999755859</ele>
        <time>2021-05-03T11:35:51Z</time>
      </trkpt>
      <trkpt lat="44.25618" lon="6.07184">
        <ele>1946.1999511719</ele>
        <time>2021-05-03T11:36:13Z</time>
      </trkpt>
      <trkpt lat="44.25613" lon="6.07185">
        <ele>1946.4000244141</ele>
        <time>2021-05-03T11:36:58Z</time>
      </trkpt>
      <trkpt lat="44.25603" lon="6.07183">
        <ele>1949.5999755859</ele>
        <time>2021-05-03T11:37:16Z</time>
      </trkpt>
      <trkpt lat="44.25597" lon="6.0718">
        <ele>1952.5999755859</ele>
        <time>2021-05-03T11:37:29Z</time>
      </trkpt>
      <trkpt lat="44.2559" lon="6.07176">
        <ele>1955.8000488281</ele>
        <time>2021-05-03T11:37:45Z</time>
      </trkpt>
      <trkpt lat="44.25581" lon="6.07176">
        <ele>1959</ele>
        <time>2021-05-03T11:38:03Z</time>
      </trkpt>
      <trkpt lat="44.25577" lon="6.07177">
        <ele>1961.4000244141</ele>
        <time>2021-05-03T11:38:24Z</time>
      </trkpt>
      <trkpt lat="44.25565" lon="6.07175">
        <ele>1964.4000244141</ele>
        <time>2021-05-03T11:38:48Z</time>
      </trkpt>
      <trkpt lat="44.25556" lon="6.07171">
        <ele>1967.4000244141</ele>
        <time>2021-05-03T11:39:05Z</time>
      </trkpt>
      <trkpt lat="44.25544" lon="6.07167">
        <ele>1970.5999755859</ele>
        <time>2021-05-03T11:39:23Z</time>
      </trkpt>
      <trkpt lat="44.25533" lon="6.07165">
        <ele>1973.1999511719</ele>
        <time>2021-05-03T11:39:40Z</time>
      </trkpt>
      <trkpt lat="44.25531" lon="6.07162">
        <ele>1975.4000244141</ele>
        <time>2021-05-03T11:39:58Z</time>
      </trkpt>
      <trkpt lat="44.25529" lon="6.07164">
        <ele>1975.8000488281</ele>
        <time>2021-05-03T11:40:32Z</time>
      </trkpt>
      <trkpt lat="44.25522" lon="6.07156">
        <ele>1976.1999511719</ele>
        <time>2021-05-03T11:40:43Z</time>
      </trkpt>
      <trkpt lat="44.25515" lon="6.0714">
        <ele>1978.5999755859</ele>
        <time>2021-05-03T11:40:59Z</time>
      </trkpt>
      <trkpt lat="44.25508" lon="6.07125">
        <ele>1981.1999511719</ele>
        <time>2021-05-03T11:41:16Z</time>
      </trkpt>
      <trkpt lat="44.25509" lon="6.0711">
        <ele>1984</ele>
        <time>2021-05-03T11:41:34Z</time>
      </trkpt>
      <trkpt lat="44.25507" lon="6.07099">
        <ele>1987</ele>
        <time>2021-05-03T11:41:51Z</time>
      </trkpt>
      <trkpt lat="44.25504" lon="6.07074">
        <ele>1990.4000244141</ele>
        <time>2021-05-03T11:42:17Z</time>
      </trkpt>
      <trkpt lat="44.25491" lon="6.07053">
        <ele>1992</ele>
        <time>2021-05-03T11:42:40Z</time>
      </trkpt>
      <trkpt lat="44.25479" lon="6.07034">
        <ele>1993</ele>
        <time>2021-05-03T11:42:58Z</time>
      </trkpt>
      <trkpt lat="44.25474" lon="6.07027">
        <ele>1994.5999755859</ele>
        <time>2021-05-03T11:43:20Z</time>
      </trkpt>
      <trkpt lat="44.25474" lon="6.07026">
        <ele>1994.4000244141</ele>
        <time>2021-05-03T11:44:07Z</time>
      </trkpt>
      <trkpt lat="44.25467" lon="6.07016">
        <ele>1994.8000488281</ele>
        <time>2021-05-03T11:45:02Z</time>
      </trkpt>
      <trkpt lat="44.25463" lon="6.07011">
        <ele>1995.5999755859</ele>
        <time>2021-05-03T11:45:21Z</time>
      </trkpt>
      <trkpt lat="44.25464" lon="6.0701">
        <ele>1995.8000488281</ele>
        <time>2021-05-03T11:46:34Z</time>
      </trkpt>
      <trkpt lat="44.25463" lon="6.07009">
        <ele>1996</ele>
        <time>2021-05-03T11:47:50Z</time>
      </trkpt>
      <trkpt lat="44.25462" lon="6.07008">
        <ele>1996</ele>
        <time>2021-05-03T11:47:52Z</time>
      </trkpt>
      <trkpt lat="44.25453" lon="6.06997">
        <ele>1996.4000244141</ele>
        <time>2021-05-03T11:48:06Z</time>
      </trkpt>
      <trkpt lat="44.25442" lon="6.06992">
        <ele>1998.8000488281</ele>
        <time>2021-05-03T11:48:25Z</time>
      </trkpt>
      <trkpt lat="44.25433" lon="6.06992">
        <ele>1999.1999511719</ele>
        <time>2021-05-03T11:48:56Z</time>
      </trkpt>
      <trkpt lat="44.2543" lon="6.0699">
        <ele>1999.4000244141</ele>
        <time>2021-05-03T11:48:59Z</time>
      </trkpt>
      <trkpt lat="44.25419" lon="6.06984">
        <ele>2000.1999511719</ele>
        <time>2021-05-03T11:49:12Z</time>
      </trkpt>
      <trkpt lat="44.25405" lon="6.06979">
        <ele>2001.8000488281</ele>
        <time>2021-05-03T11:49:28Z</time>
      </trkpt>
      <trkpt lat="44.25402" lon="6.06979">
        <ele>2002</ele>
        <time>2021-05-03T11:49:31Z</time>
      </trkpt>
      <trkpt lat="44.25399" lon="6.06979">
        <ele>2002.4000244141</ele>
        <time>2021-05-03T11:49:34Z</time>
      </trkpt>
      <trkpt lat="44.25385" lon="6.06978">
        <ele>2003</ele>
        <time>2021-05-03T11:49:48Z</time>
      </trkpt>
      <trkpt lat="44.25376" lon="6.06977">
        <ele>2004</ele>
        <time>2021-05-03T11:50:00Z</time>
      </trkpt>
      <trkpt lat="44.25362" lon="6.06978">
        <ele>2005.1999511719</ele>
        <time>2021-05-03T11:50:18Z</time>
      </trkpt>
      <trkpt lat="44.25348" lon="6.06984">
        <ele>2005.8000488281</ele>
        <time>2021-05-03T11:50:36Z</time>
      </trkpt>
      <trkpt lat="44.25339" lon="6.06985">
        <ele>2007.1999511719</ele>
        <time>2021-05-03T11:50:55Z</time>
      </trkpt>
      <trkpt lat="44.25332" lon="6.06977">
        <ele>2008.5999755859</ele>
        <time>2021-05-03T11:51:13Z</time>
      </trkpt>
      <trkpt lat="44.25331" lon="6.06978">
        <ele>2009.5999755859</ele>
        <time>2021-05-03T11:51:58Z</time>
      </trkpt>
      <trkpt lat="44.25328" lon="6.06986">
        <ele>2009.5999755859</ele>
        <time>2021-05-03T11:52:31Z</time>
      </trkpt>
      <trkpt lat="44.25322" lon="6.07003">
        <ele>2011.5999755859</ele>
        <time>2021-05-03T11:52:49Z</time>
      </trkpt>
      <trkpt lat="44.25313" lon="6.07022">
        <ele>2014.5999755859</ele>
        <time>2021-05-03T11:53:13Z</time>
      </trkpt>
      <trkpt lat="44.25304" lon="6.07034">
        <ele>2017.1999511719</ele>
        <time>2021-05-03T11:53:31Z</time>
      </trkpt>
      <trkpt lat="44.25298" lon="6.07046">
        <ele>2019.1999511719</ele>
        <time>2021-05-03T11:53:51Z</time>
      </trkpt>
      <trkpt lat="44.25297" lon="6.07047">
        <ele>2019</ele>
        <time>2021-05-03T11:54:15Z</time>
      </trkpt>
      <trkpt lat="44.25295" lon="6.07046">
        <ele>2019</ele>
        <time>2021-05-03T11:55:26Z</time>
      </trkpt>
      <trkpt lat="44.25295" lon="6.07045">
        <ele>2019</ele>
        <time>2021-05-03T11:56:28Z</time>
      </trkpt>
      <trkpt lat="44.25296" lon="6.07046">
        <ele>2019</ele>
        <time>2021-05-03T11:56:50Z</time>
      </trkpt>
      <trkpt lat="44.25296" lon="6.07047">
        <ele>2019</ele>
        <time>2021-05-03T11:58:15Z</time>
      </trkpt>
      <trkpt lat="44.25297" lon="6.07046">
        <ele>2019.1999511719</ele>
        <time>2021-05-03T11:58:55Z</time>
      </trkpt>
      <trkpt lat="44.25298" lon="6.07048">
        <ele>2019</ele>
        <time>2021-05-03T11:59:22Z</time>
      </trkpt>
      <trkpt lat="44.25294" lon="6.0705">
        <ele>2018.4000244141</ele>
        <time>2021-05-03T11:59:52Z</time>
      </trkpt>
      <trkpt lat="44.25297" lon="6.0705">
        <ele>2018.5999755859</ele>
        <time>2021-05-03T12:00:14Z</time>
      </trkpt>
      <trkpt lat="44.25297" lon="6.0705">
        <ele>2018.5999755859</ele>
        <time>2021-05-03T12:00:50Z</time>
      </trkpt>
      <trkpt lat="44.25298" lon="6.0705">
        <ele>2019.4000244141</ele>
        <time>2021-05-03T12:01:19Z</time>
      </trkpt>
      <trkpt lat="44.25298" lon="6.07049">
        <ele>2019.1999511719</ele>
        <time>2021-05-03T12:02:30Z</time>
      </trkpt>
      <trkpt lat="44.253" lon="6.07049">
        <ele>2019</ele>
        <time>2021-05-03T12:03:13Z</time>
      </trkpt>
      <trkpt lat="44.25302" lon="6.07051">
        <ele>2019</ele>
        <time>2021-05-03T12:03:40Z</time>
      </trkpt>
      <trkpt lat="44.253" lon="6.07051">
        <ele>2018.8000488281</ele>
        <time>2021-05-03T12:04:14Z</time>
      </trkpt>
      <trkpt lat="44.25299" lon="6.0705">
        <ele>2018.5999755859</ele>
        <time>2021-05-03T12:04:41Z</time>
      </trkpt>
      <trkpt lat="44.25297" lon="6.07058">
        <ele>2018.4000244141</ele>
        <time>2021-05-03T12:04:56Z</time>
      </trkpt>
      <trkpt lat="44.25291" lon="6.07073">
        <ele>2017.8000488281</ele>
        <time>2021-05-03T12:05:14Z</time>
      </trkpt>
      <trkpt lat="44.25288" lon="6.07088">
        <ele>2016.5999755859</ele>
        <time>2021-05-03T12:05:31Z</time>
      </trkpt>
      <trkpt lat="44.25285" lon="6.07101">
        <ele>2016</ele>
        <time>2021-05-03T12:05:47Z</time>
      </trkpt>
      <trkpt lat="44.2528" lon="6.07117">
        <ele>2014</ele>
        <time>2021-05-03T12:06:05Z</time>
      </trkpt>
      <trkpt lat="44.25274" lon="6.07137">
        <ele>2010.8000488281</ele>
        <time>2021-05-03T12:06:26Z</time>
      </trkpt>
      <trkpt lat="44.25268" lon="6.07154">
        <ele>2008.8000488281</ele>
        <time>2021-05-03T12:06:43Z</time>
      </trkpt>
      <trkpt lat="44.25266" lon="6.07159">
        <ele>2007.4000244141</ele>
        <time>2021-05-03T12:07:04Z</time>
      </trkpt>
      <trkpt lat="44.25265" lon="6.07165">
        <ele>2007.1999511719</ele>
        <time>2021-05-03T12:07:19Z</time>
      </trkpt>
      <trkpt lat="44.25259" lon="6.07188">
        <ele>2006</ele>
        <time>2021-05-03T12:07:37Z</time>
      </trkpt>
      <trkpt lat="44.2525" lon="6.07206">
        <ele>2004.4000244141</ele>
        <time>2021-05-03T12:07:54Z</time>
      </trkpt>
      <trkpt lat="44.25249" lon="6.07208">
        <ele>2004</ele>
        <time>2021-05-03T12:07:56Z</time>
      </trkpt>
      <trkpt lat="44.25244" lon="6.07219">
        <ele>2002.5999755859</ele>
        <time>2021-05-03T12:08:15Z</time>
      </trkpt>
      <trkpt lat="44.25239" lon="6.07232">
        <ele>2002.4000244141</ele>
        <time>2021-05-03T12:08:36Z</time>
      </trkpt>
      <trkpt lat="44.25236" lon="6.07241">
        <ele>2001.4000244141</ele>
        <time>2021-05-03T12:09:00Z</time>
      </trkpt>
      <trkpt lat="44.25231" lon="6.07253">
        <ele>2000</ele>
        <time>2021-05-03T12:09:11Z</time>
      </trkpt>
      <trkpt lat="44.25224" lon="6.07267">
        <ele>1996.5999755859</ele>
        <time>2021-05-03T12:09:29Z</time>
      </trkpt>
      <trkpt lat="44.25219" lon="6.07272">
        <ele>1995</ele>
        <time>2021-05-03T12:09:44Z</time>
      </trkpt>
      <trkpt lat="44.25214" lon="6.07284">
        <ele>1993.8000488281</ele>
        <time>2021-05-03T12:09:59Z</time>
      </trkpt>
      <trkpt lat="44.25205" lon="6.07299">
        <ele>1990.8000488281</ele>
        <time>2021-05-03T12:10:15Z</time>
      </trkpt>
      <trkpt lat="44.25203" lon="6.07301">
        <ele>1990.1999511719</ele>
        <time>2021-05-03T12:10:18Z</time>
      </trkpt>
      <trkpt lat="44.25193" lon="6.07316">
        <ele>1986.8000488281</ele>
        <time>2021-05-03T12:10:33Z</time>
      </trkpt>
      <trkpt lat="44.25184" lon="6.0733">
        <ele>1984.1999511719</ele>
        <time>2021-05-03T12:10:47Z</time>
      </trkpt>
      <trkpt lat="44.25181" lon="6.0734">
        <ele>1981.1999511719</ele>
        <time>2021-05-03T12:10:59Z</time>
      </trkpt>
      <trkpt lat="44.25176" lon="6.07349">
        <ele>1978.1999511719</ele>
        <time>2021-05-03T12:11:13Z</time>
      </trkpt>
      <trkpt lat="44.2517" lon="6.07359">
        <ele>1975</ele>
        <time>2021-05-03T12:11:29Z</time>
      </trkpt>
      <trkpt lat="44.25166" lon="6.07371">
        <ele>1971.5999755859</ele>
        <time>2021-05-03T12:11:43Z</time>
      </trkpt>
      <trkpt lat="44.2516" lon="6.07384">
        <ele>1968.8000488281</ele>
        <time>2021-05-03T12:11:58Z</time>
      </trkpt>
      <trkpt lat="44.25155" lon="6.07393">
        <ele>1966.5999755859</ele>
        <time>2021-05-03T12:12:07Z</time>
      </trkpt>
      <trkpt lat="44.25145" lon="6.07408">
        <ele>1964.8000488281</ele>
        <time>2021-05-03T12:12:21Z</time>
      </trkpt>
      <trkpt lat="44.25134" lon="6.07426">
        <ele>1961.8000488281</ele>
        <time>2021-05-03T12:12:42Z</time>
      </trkpt>
      <trkpt lat="44.25123" lon="6.07439">
        <ele>1960</ele>
        <time>2021-05-03T12:12:59Z</time>
      </trkpt>
      <trkpt lat="44.25115" lon="6.07449">
        <ele>1958.8000488281</ele>
        <time>2021-05-03T12:13:12Z</time>
      </trkpt>
      <trkpt lat="44.25103" lon="6.07464">
        <ele>1957</ele>
        <time>2021-05-03T12:13:29Z</time>
      </trkpt>
      <trkpt lat="44.25096" lon="6.07479">
        <ele>1955.5999755859</ele>
        <time>2021-05-03T12:13:42Z</time>
      </trkpt>
      <trkpt lat="44.25099" lon="6.07506">
        <ele>1953.1999511719</ele>
        <time>2021-05-03T12:14:00Z</time>
      </trkpt>
      <trkpt lat="44.25102" lon="6.07514">
        <ele>1950</ele>
        <time>2021-05-03T12:14:18Z</time>
      </trkpt>
      <trkpt lat="44.25101" lon="6.07514">
        <ele>1948.5999755859</ele>
        <time>2021-05-03T12:14:47Z</time>
      </trkpt>
      <trkpt lat="44.25101" lon="6.07513">
        <ele>1948.5999755859</ele>
        <time>2021-05-03T12:15:17Z</time>
      </trkpt>
      <trkpt lat="44.251" lon="6.07513">
        <ele>1949</ele>
        <time>2021-05-03T12:20:07Z</time>
      </trkpt>
      <trkpt lat="44.25099" lon="6.07514">
        <ele>1948.5999755859</ele>
        <time>2021-05-03T12:31:34Z</time>
      </trkpt>
      <trkpt lat="44.25098" lon="6.07514">
        <ele>1949</ele>
        <time>2021-05-03T12:36:55Z</time>
      </trkpt>
      <trkpt lat="44.25097" lon="6.07514">
        <ele>1950</ele>
        <time>2021-05-03T12:37:24Z</time>
      </trkpt>
      <trkpt lat="44.25086" lon="6.07515">
        <ele>1950</ele>
        <time>2021-05-03T12:37:43Z</time>
      </trkpt>
      <trkpt lat="44.25085" lon="6.07515">
        <ele>1950</ele>
        <time>2021-05-03T12:37:45Z</time>
      </trkpt>
      <trkpt lat="44.25073" lon="6.07519">
        <ele>1949.4000244141</ele>
        <time>2021-05-03T12:38:04Z</time>
      </trkpt>
      <trkpt lat="44.25065" lon="6.07532">
        <ele>1947.8000488281</ele>
        <time>2021-05-03T12:38:21Z</time>
      </trkpt>
      <trkpt lat="44.25059" lon="6.07545">
        <ele>1945.8000488281</ele>
        <time>2021-05-03T12:38:35Z</time>
      </trkpt>
      <trkpt lat="44.25051" lon="6.07564">
        <ele>1943.5999755859</ele>
        <time>2021-05-03T12:38:55Z</time>
      </trkpt>
      <trkpt lat="44.25044" lon="6.07581">
        <ele>1941.1999511719</ele>
        <time>2021-05-03T12:39:11Z</time>
      </trkpt>
      <trkpt lat="44.25037" lon="6.07593">
        <ele>1938.5999755859</ele>
        <time>2021-05-03T12:39:27Z</time>
      </trkpt>
      <trkpt lat="44.25028" lon="6.07605">
        <ele>1935.4000244141</ele>
        <time>2021-05-03T12:39:44Z</time>
      </trkpt>
      <trkpt lat="44.25024" lon="6.07619">
        <ele>1932.4000244141</ele>
        <time>2021-05-03T12:39:57Z</time>
      </trkpt>
      <trkpt lat="44.25022" lon="6.07625">
        <ele>1931.1999511719</ele>
        <time>2021-05-03T12:40:03Z</time>
      </trkpt>
      <trkpt lat="44.2502" lon="6.07628">
        <ele>1930.8000488281</ele>
        <time>2021-05-03T12:40:06Z</time>
      </trkpt>
      <trkpt lat="44.25019" lon="6.07629">
        <ele>1930.4000244141</ele>
        <time>2021-05-03T12:40:08Z</time>
      </trkpt>
      <trkpt lat="44.25016" lon="6.07634">
        <ele>1929.5999755859</ele>
        <time>2021-05-03T12:40:12Z</time>
      </trkpt>
      <trkpt lat="44.25013" lon="6.07655">
        <ele>1927.4000244141</ele>
        <time>2021-05-03T12:40:30Z</time>
      </trkpt>
      <trkpt lat="44.25007" lon="6.07667">
        <ele>1924</ele>
        <time>2021-05-03T12:40:43Z</time>
      </trkpt>
      <trkpt lat="44.25002" lon="6.07672">
        <ele>1922.4000244141</ele>
        <time>2021-05-03T12:40:52Z</time>
      </trkpt>
      <trkpt lat="44.24992" lon="6.07689">
        <ele>1920</ele>
        <time>2021-05-03T12:41:08Z</time>
      </trkpt>
      <trkpt lat="44.24979" lon="6.07706">
        <ele>1917.5999755859</ele>
        <time>2021-05-03T12:41:25Z</time>
      </trkpt>
      <trkpt lat="44.24977" lon="6.07711">
        <ele>1916.8000488281</ele>
        <time>2021-05-03T12:41:29Z</time>
      </trkpt>
      <trkpt lat="44.24967" lon="6.07723">
        <ele>1915.8000488281</ele>
        <time>2021-05-03T12:41:43Z</time>
      </trkpt>
      <trkpt lat="44.24958" lon="6.07738">
        <ele>1914.1999511719</ele>
        <time>2021-05-03T12:41:59Z</time>
      </trkpt>
      <trkpt lat="44.24946" lon="6.07751">
        <ele>1911.1999511719</ele>
        <time>2021-05-03T12:42:15Z</time>
      </trkpt>
      <trkpt lat="44.24931" lon="6.07762">
        <ele>1908.1999511719</ele>
        <time>2021-05-03T12:42:36Z</time>
      </trkpt>
      <trkpt lat="44.24926" lon="6.07765">
        <ele>1906.5999755859</ele>
        <time>2021-05-03T12:42:57Z</time>
      </trkpt>
      <trkpt lat="44.24924" lon="6.07769">
        <ele>1906.5999755859</ele>
        <time>2021-05-03T12:43:02Z</time>
      </trkpt>
      <trkpt lat="44.24918" lon="6.07775">
        <ele>1905.8000488281</ele>
        <time>2021-05-03T12:43:23Z</time>
      </trkpt>
      <trkpt lat="44.24918" lon="6.07776">
        <ele>1905.4000244141</ele>
        <time>2021-05-03T12:43:35Z</time>
      </trkpt>
      <trkpt lat="44.24918" lon="6.07778">
        <ele>1905.4000244141</ele>
        <time>2021-05-03T12:43:37Z</time>
      </trkpt>
      <trkpt lat="44.24913" lon="6.07796">
        <ele>1904</ele>
        <time>2021-05-03T12:43:53Z</time>
      </trkpt>
      <trkpt lat="44.24905" lon="6.07808">
        <ele>1901.1999511719</ele>
        <time>2021-05-03T12:44:09Z</time>
      </trkpt>
      <trkpt lat="44.24898" lon="6.07821">
        <ele>1898.4000244141</ele>
        <time>2021-05-03T12:44:26Z</time>
      </trkpt>
      <trkpt lat="44.24894" lon="6.07831">
        <ele>1895.1999511719</ele>
        <time>2021-05-03T12:44:44Z</time>
      </trkpt>
      <trkpt lat="44.24885" lon="6.0784">
        <ele>1892.8000488281</ele>
        <time>2021-05-03T12:45:03Z</time>
      </trkpt>
      <trkpt lat="44.24883" lon="6.0785">
        <ele>1891.5999755859</ele>
        <time>2021-05-03T12:45:22Z</time>
      </trkpt>
      <trkpt lat="44.2488" lon="6.07863">
        <ele>1888.8000488281</ele>
        <time>2021-05-03T12:45:37Z</time>
      </trkpt>
      <trkpt lat="44.24874" lon="6.07874">
        <ele>1886.1999511719</ele>
        <time>2021-05-03T12:45:53Z</time>
      </trkpt>
      <trkpt lat="44.2487" lon="6.07893">
        <ele>1883.8000488281</ele>
        <time>2021-05-03T12:46:09Z</time>
      </trkpt>
      <trkpt lat="44.24869" lon="6.0791">
        <ele>1881.4000244141</ele>
        <time>2021-05-03T12:46:24Z</time>
      </trkpt>
      <trkpt lat="44.24866" lon="6.07929">
        <ele>1879.4000244141</ele>
        <time>2021-05-03T12:46:43Z</time>
      </trkpt>
      <trkpt lat="44.24865" lon="6.07943">
        <ele>1878.1999511719</ele>
        <time>2021-05-03T12:46:59Z</time>
      </trkpt>
      <trkpt lat="44.24867" lon="6.07955">
        <ele>1875.4000244141</ele>
        <time>2021-05-03T12:47:18Z</time>
      </trkpt>
      <trkpt lat="44.24868" lon="6.07968">
        <ele>1872.4000244141</ele>
        <time>2021-05-03T12:47:33Z</time>
      </trkpt>
      <trkpt lat="44.24867" lon="6.07979">
        <ele>1869.1999511719</ele>
        <time>2021-05-03T12:47:51Z</time>
      </trkpt>
      <trkpt lat="44.24864" lon="6.07987">
        <ele>1866</ele>
        <time>2021-05-03T12:48:06Z</time>
      </trkpt>
      <trkpt lat="44.24859" lon="6.07996">
        <ele>1863.5999755859</ele>
        <time>2021-05-03T12:48:21Z</time>
      </trkpt>
      <trkpt lat="44.24857" lon="6.08007">
        <ele>1860.4000244141</ele>
        <time>2021-05-03T12:48:41Z</time>
      </trkpt>
      <trkpt lat="44.24856" lon="6.08015">
        <ele>1858.1999511719</ele>
        <time>2021-05-03T12:49:01Z</time>
      </trkpt>
      <trkpt lat="44.24851" lon="6.08026">
        <ele>1855</ele>
        <time>2021-05-03T12:49:16Z</time>
      </trkpt>
      <trkpt lat="44.24848" lon="6.08036">
        <ele>1851.8000488281</ele>
        <time>2021-05-03T12:49:33Z</time>
      </trkpt>
      <trkpt lat="44.24848" lon="6.08052">
        <ele>1848.5999755859</ele>
        <time>2021-05-03T12:49:54Z</time>
      </trkpt>
      <trkpt lat="44.24847" lon="6.08058">
        <ele>1845.5999755859</ele>
        <time>2021-05-03T12:50:07Z</time>
      </trkpt>
      <trkpt lat="44.24847" lon="6.08069">
        <ele>1842.5999755859</ele>
        <time>2021-05-03T12:50:23Z</time>
      </trkpt>
      <trkpt lat="44.24846" lon="6.08079">
        <ele>1839.8000488281</ele>
        <time>2021-05-03T12:50:43Z</time>
      </trkpt>
      <trkpt lat="44.24845" lon="6.08088">
        <ele>1836.5999755859</ele>
        <time>2021-05-03T12:51:02Z</time>
      </trkpt>
      <trkpt lat="44.2484" lon="6.08093">
        <ele>1833.5999755859</ele>
        <time>2021-05-03T12:51:13Z</time>
      </trkpt>
      <trkpt lat="44.24833" lon="6.08089">
        <ele>1830.4000244141</ele>
        <time>2021-05-03T12:51:25Z</time>
      </trkpt>
      <trkpt lat="44.24821" lon="6.08078">
        <ele>1827.4000244141</ele>
        <time>2021-05-03T12:51:40Z</time>
      </trkpt>
      <trkpt lat="44.24815" lon="6.08074">
        <ele>1825.5999755859</ele>
        <time>2021-05-03T12:51:50Z</time>
      </trkpt>
      <trkpt lat="44.248" lon="6.08061">
        <ele>1823</ele>
        <time>2021-05-03T12:52:06Z</time>
      </trkpt>
      <trkpt lat="44.24794" lon="6.08053">
        <ele>1823</ele>
        <time>2021-05-03T12:52:38Z</time>
      </trkpt>
      <trkpt lat="44.24785" lon="6.08047">
        <ele>1822.8000488281</ele>
        <time>2021-05-03T12:52:50Z</time>
      </trkpt>
      <trkpt lat="44.2477" lon="6.0804">
        <ele>1822.8000488281</ele>
        <time>2021-05-03T12:53:07Z</time>
      </trkpt>
      <trkpt lat="44.24769" lon="6.0804">
        <ele>1822.5999755859</ele>
        <time>2021-05-03T12:53:08Z</time>
      </trkpt>
      <trkpt lat="44.24764" lon="6.0804">
        <ele>1822.5999755859</ele>
        <time>2021-05-03T12:53:13Z</time>
      </trkpt>
      <trkpt lat="44.24749" lon="6.08038">
        <ele>1821.4000244141</ele>
        <time>2021-05-03T12:53:29Z</time>
      </trkpt>
      <trkpt lat="44.24741" lon="6.08044">
        <ele>1819.1999511719</ele>
        <time>2021-05-03T12:53:45Z</time>
      </trkpt>
      <trkpt lat="44.24738" lon="6.08049">
        <ele>1818.4000244141</ele>
        <time>2021-05-03T12:53:51Z</time>
      </trkpt>
      <trkpt lat="44.2474" lon="6.08074">
        <ele>1815.5999755859</ele>
        <time>2021-05-03T12:54:09Z</time>
      </trkpt>
      <trkpt lat="44.24738" lon="6.0809">
        <ele>1813</ele>
        <time>2021-05-03T12:54:24Z</time>
      </trkpt>
      <trkpt lat="44.24727" lon="6.08078">
        <ele>1810.4000244141</ele>
        <time>2021-05-03T12:54:41Z</time>
      </trkpt>
      <trkpt lat="44.24717" lon="6.08055">
        <ele>1809.8000488281</ele>
        <time>2021-05-03T12:55:00Z</time>
      </trkpt>
      <trkpt lat="44.24715" lon="6.08036">
        <ele>1809.4000244141</ele>
        <time>2021-05-03T12:55:19Z</time>
      </trkpt>
      <trkpt lat="44.24716" lon="6.08018">
        <ele>1809.1999511719</ele>
        <time>2021-05-03T12:55:40Z</time>
      </trkpt>
      <trkpt lat="44.24719" lon="6.08001">
        <ele>1806.1999511719</ele>
        <time>2021-05-03T12:56:00Z</time>
      </trkpt>
      <trkpt lat="44.24722" lon="6.07982">
        <ele>1803.5999755859</ele>
        <time>2021-05-03T12:56:19Z</time>
      </trkpt>
      <trkpt lat="44.24722" lon="6.07969">
        <ele>1802</ele>
        <time>2021-05-03T12:56:39Z</time>
      </trkpt>
      <trkpt lat="44.24723" lon="6.07953">
        <ele>1799</ele>
        <time>2021-05-03T12:57:02Z</time>
      </trkpt>
      <trkpt lat="44.24722" lon="6.07939">
        <ele>1795.5999755859</ele>
        <time>2021-05-03T12:57:23Z</time>
      </trkpt>
      <trkpt lat="44.24723" lon="6.0793">
        <ele>1792.5999755859</ele>
        <time>2021-05-03T12:57:40Z</time>
      </trkpt>
      <trkpt lat="44.24726" lon="6.07918">
        <ele>1789.4000244141</ele>
        <time>2021-05-03T12:57:57Z</time>
      </trkpt>
      <trkpt lat="44.24729" lon="6.07902">
        <ele>1787.8000488281</ele>
        <time>2021-05-03T12:58:21Z</time>
      </trkpt>
      <trkpt lat="44.24725" lon="6.079">
        <ele>1787.1999511719</ele>
        <time>2021-05-03T12:59:48Z</time>
      </trkpt>
      <trkpt lat="44.24728" lon="6.07892">
        <ele>1788.1999511719</ele>
        <time>2021-05-03T13:00:18Z</time>
      </trkpt>
      <trkpt lat="44.24734" lon="6.07875">
        <ele>1786</ele>
        <time>2021-05-03T13:00:37Z</time>
      </trkpt>
      <trkpt lat="44.24737" lon="6.07864">
        <ele>1784.1999511719</ele>
        <time>2021-05-03T13:00:51Z</time>
      </trkpt>
      <trkpt lat="44.24743" lon="6.07849">
        <ele>1783.4000244141</ele>
        <time>2021-05-03T13:01:13Z</time>
      </trkpt>
      <trkpt lat="44.2475" lon="6.07835">
        <ele>1782.4000244141</ele>
        <time>2021-05-03T13:01:33Z</time>
      </trkpt>
      <trkpt lat="44.24753" lon="6.07823">
        <ele>1780.4000244141</ele>
        <time>2021-05-03T13:01:52Z</time>
      </trkpt>
      <trkpt lat="44.24758" lon="6.0781">
        <ele>1777.5999755859</ele>
        <time>2021-05-03T13:02:09Z</time>
      </trkpt>
      <trkpt lat="44.24762" lon="6.07794">
        <ele>1775.5999755859</ele>
        <time>2021-05-03T13:02:30Z</time>
      </trkpt>
      <trkpt lat="44.24763" lon="6.07783">
        <ele>1772.5999755859</ele>
        <time>2021-05-03T13:02:46Z</time>
      </trkpt>
      <trkpt lat="44.24762" lon="6.07763">
        <ele>1769.8000488281</ele>
        <time>2021-05-03T13:03:06Z</time>
      </trkpt>
      <trkpt lat="44.24764" lon="6.07742">
        <ele>1767.8000488281</ele>
        <time>2021-05-03T13:03:23Z</time>
      </trkpt>
      <trkpt lat="44.24764" lon="6.07722">
        <ele>1765.4000244141</ele>
        <time>2021-05-03T13:03:40Z</time>
      </trkpt>
      <trkpt lat="44.24764" lon="6.077">
        <ele>1763.4000244141</ele>
        <time>2021-05-03T13:03:57Z</time>
      </trkpt>
      <trkpt lat="44.24761" lon="6.07683">
        <ele>1760.4000244141</ele>
        <time>2021-05-03T13:04:12Z</time>
      </trkpt>
      <trkpt lat="44.24757" lon="6.0767">
        <ele>1758.1999511719</ele>
        <time>2021-05-03T13:04:27Z</time>
      </trkpt>
      <trkpt lat="44.24753" lon="6.07657">
        <ele>1756.8000488281</ele>
        <time>2021-05-03T13:04:41Z</time>
      </trkpt>
      <trkpt lat="44.24749" lon="6.07635">
        <ele>1754.8000488281</ele>
        <time>2021-05-03T13:04:58Z</time>
      </trkpt>
      <trkpt lat="44.24749" lon="6.07632">
        <ele>1754.5999755859</ele>
        <time>2021-05-03T13:05:00Z</time>
      </trkpt>
      <trkpt lat="44.24748" lon="6.07608">
        <ele>1753</ele>
        <time>2021-05-03T13:05:19Z</time>
      </trkpt>
      <trkpt lat="44.24746" lon="6.07587">
        <ele>1750</ele>
        <time>2021-05-03T13:05:35Z</time>
      </trkpt>
      <trkpt lat="44.24749" lon="6.0756">
        <ele>1748</ele>
        <time>2021-05-03T13:05:55Z</time>
      </trkpt>
      <trkpt lat="44.24753" lon="6.07533">
        <ele>1746</ele>
        <time>2021-05-03T13:06:16Z</time>
      </trkpt>
      <trkpt lat="44.24756" lon="6.07503">
        <ele>1743.4000244141</ele>
        <time>2021-05-03T13:06:39Z</time>
      </trkpt>
      <trkpt lat="44.24761" lon="6.07476">
        <ele>1741.4000244141</ele>
        <time>2021-05-03T13:06:59Z</time>
      </trkpt>
      <trkpt lat="44.2476" lon="6.0747">
        <ele>1741</ele>
        <time>2021-05-03T13:07:03Z</time>
      </trkpt>
      <trkpt lat="44.24759" lon="6.07441">
        <ele>1738.4000244141</ele>
        <time>2021-05-03T13:07:25Z</time>
      </trkpt>
      <trkpt lat="44.2476" lon="6.07434">
        <ele>1737.8000488281</ele>
        <time>2021-05-03T13:07:30Z</time>
      </trkpt>
      <trkpt lat="44.24764" lon="6.07415">
        <ele>1735.8000488281</ele>
        <time>2021-05-03T13:07:47Z</time>
      </trkpt>
      <trkpt lat="44.24767" lon="6.07396">
        <ele>1734.1999511719</ele>
        <time>2021-05-03T13:08:03Z</time>
      </trkpt>
      <trkpt lat="44.24767" lon="6.07379">
        <ele>1732.8000488281</ele>
        <time>2021-05-03T13:08:24Z</time>
      </trkpt>
      <trkpt lat="44.24762" lon="6.07367">
        <ele>1731.4000244141</ele>
        <time>2021-05-03T13:08:43Z</time>
      </trkpt>
      <trkpt lat="44.24752" lon="6.07368">
        <ele>1728.4000244141</ele>
        <time>2021-05-03T13:08:59Z</time>
      </trkpt>
      <trkpt lat="44.2475" lon="6.07365">
        <ele>1727.4000244141</ele>
        <time>2021-05-03T13:09:03Z</time>
      </trkpt>
      <trkpt lat="44.24752" lon="6.07336">
        <ele>1724.8000488281</ele>
        <time>2021-05-03T13:09:25Z</time>
      </trkpt>
      <trkpt lat="44.24759" lon="6.07305">
        <ele>1722.4000244141</ele>
        <time>2021-05-03T13:09:47Z</time>
      </trkpt>
      <trkpt lat="44.24759" lon="6.07269">
        <ele>1719.4000244141</ele>
        <time>2021-05-03T13:10:10Z</time>
      </trkpt>
      <trkpt lat="44.24762" lon="6.07247">
        <ele>1716.4000244141</ele>
        <time>2021-05-03T13:10:28Z</time>
      </trkpt>
      <trkpt lat="44.2477" lon="6.07223">
        <ele>1713.1999511719</ele>
        <time>2021-05-03T13:10:46Z</time>
      </trkpt>
      <trkpt lat="44.24774" lon="6.07207">
        <ele>1711.4000244141</ele>
        <time>2021-05-03T13:11:00Z</time>
      </trkpt>
      <trkpt lat="44.24778" lon="6.07189">
        <ele>1709.5999755859</ele>
        <time>2021-05-03T13:11:16Z</time>
      </trkpt>
      <trkpt lat="44.24779" lon="6.07186">
        <ele>1709.4000244141</ele>
        <time>2021-05-03T13:11:19Z</time>
      </trkpt>
      <trkpt lat="44.24788" lon="6.07165">
        <ele>1706.5999755859</ele>
        <time>2021-05-03T13:11:38Z</time>
      </trkpt>
      <trkpt lat="44.24794" lon="6.07147">
        <ele>1705</ele>
        <time>2021-05-03T13:11:51Z</time>
      </trkpt>
      <trkpt lat="44.24795" lon="6.07137">
        <ele>1704.4000244141</ele>
        <time>2021-05-03T13:11:59Z</time>
      </trkpt>
      <trkpt lat="44.24797" lon="6.07114">
        <ele>1703.8000488281</ele>
        <time>2021-05-03T13:12:10Z</time>
      </trkpt>
      <trkpt lat="44.24797" lon="6.07112">
        <ele>1703.8000488281</ele>
        <time>2021-05-03T13:12:12Z</time>
      </trkpt>
      <trkpt lat="44.248" lon="6.07103">
        <ele>1703.8000488281</ele>
        <time>2021-05-03T13:12:20Z</time>
      </trkpt>
      <trkpt lat="44.24802" lon="6.07078">
        <ele>1704.8000488281</ele>
        <time>2021-05-03T13:12:40Z</time>
      </trkpt>
      <trkpt lat="44.24801" lon="6.07066">
        <ele>1705.4000244141</ele>
        <time>2021-05-03T13:12:47Z</time>
      </trkpt>
      <trkpt lat="44.24798" lon="6.07042">
        <ele>1707.1999511719</ele>
        <time>2021-05-03T13:13:04Z</time>
      </trkpt>
      <trkpt lat="44.24798" lon="6.07018">
        <ele>1708.8000488281</ele>
        <time>2021-05-03T13:13:22Z</time>
      </trkpt>
      <trkpt lat="44.24798" lon="6.06989">
        <ele>1710.5999755859</ele>
        <time>2021-05-03T13:13:44Z</time>
      </trkpt>
      <trkpt lat="44.24802" lon="6.06961">
        <ele>1712.5999755859</ele>
        <time>2021-05-03T13:14:04Z</time>
      </trkpt>
      <trkpt lat="44.24815" lon="6.06946">
        <ele>1714</ele>
        <time>2021-05-03T13:14:23Z</time>
      </trkpt>
      <trkpt lat="44.24826" lon="6.06931">
        <ele>1715</ele>
        <time>2021-05-03T13:14:39Z</time>
      </trkpt>
      <trkpt lat="44.2483" lon="6.0691">
        <ele>1716.4000244141</ele>
        <time>2021-05-03T13:14:55Z</time>
      </trkpt>
      <trkpt lat="44.24839" lon="6.06883">
        <ele>1718</ele>
        <time>2021-05-03T13:15:18Z</time>
      </trkpt>
      <trkpt lat="44.24844" lon="6.06874">
        <ele>1718.4000244141</ele>
        <time>2021-05-03T13:15:26Z</time>
      </trkpt>
      <trkpt lat="44.24858" lon="6.06858">
        <ele>1719.8000488281</ele>
        <time>2021-05-03T13:15:44Z</time>
      </trkpt>
      <trkpt lat="44.24871" lon="6.06834">
        <ele>1721.5999755859</ele>
        <time>2021-05-03T13:16:04Z</time>
      </trkpt>
      <trkpt lat="44.24876" lon="6.06823">
        <ele>1722.4000244141</ele>
        <time>2021-05-03T13:16:13Z</time>
      </trkpt>
      <trkpt lat="44.24877" lon="6.0682">
        <ele>1722.5999755859</ele>
        <time>2021-05-03T13:16:16Z</time>
      </trkpt>
      <trkpt lat="44.24881" lon="6.0681">
        <ele>1723.1999511719</ele>
        <time>2021-05-03T13:16:23Z</time>
      </trkpt>
      <trkpt lat="44.24888" lon="6.06789">
        <ele>1725</ele>
        <time>2021-05-03T13:16:39Z</time>
      </trkpt>
      <trkpt lat="44.2489" lon="6.06786">
        <ele>1725.1999511719</ele>
        <time>2021-05-03T13:16:42Z</time>
      </trkpt>
      <trkpt lat="44.24891" lon="6.06781">
        <ele>1725.8000488281</ele>
        <time>2021-05-03T13:16:46Z</time>
      </trkpt>
      <trkpt lat="44.24897" lon="6.06768">
        <ele>1727.4000244141</ele>
        <time>2021-05-03T13:16:57Z</time>
      </trkpt>
      <trkpt lat="44.24898" lon="6.06766">
        <ele>1727.4000244141</ele>
        <time>2021-05-03T13:16:59Z</time>
      </trkpt>
      <trkpt lat="44.249" lon="6.06764">
        <ele>1727.8000488281</ele>
        <time>2021-05-03T13:17:01Z</time>
      </trkpt>
      <trkpt lat="44.24905" lon="6.06745">
        <ele>1729</ele>
        <time>2021-05-03T13:17:15Z</time>
      </trkpt>
      <trkpt lat="44.24912" lon="6.06723">
        <ele>1730.4000244141</ele>
        <time>2021-05-03T13:17:31Z</time>
      </trkpt>
      <trkpt lat="44.24919" lon="6.06697">
        <ele>1731.5999755859</ele>
        <time>2021-05-03T13:17:51Z</time>
      </trkpt>
      <trkpt lat="44.24929" lon="6.06676">
        <ele>1733.1999511719</ele>
        <time>2021-05-03T13:18:12Z</time>
      </trkpt>
      <trkpt lat="44.24931" lon="6.06673">
        <ele>1733.5999755859</ele>
        <time>2021-05-03T13:18:20Z</time>
      </trkpt>
      <trkpt lat="44.24952" lon="6.06651">
        <ele>1735.1999511719</ele>
        <time>2021-05-03T13:18:46Z</time>
      </trkpt>
      <trkpt lat="44.24968" lon="6.06647">
        <ele>1736</ele>
        <time>2021-05-03T13:19:02Z</time>
      </trkpt>
      <trkpt lat="44.24977" lon="6.06644">
        <ele>1736.4000244141</ele>
        <time>2021-05-03T13:19:10Z</time>
      </trkpt>
      <trkpt lat="44.24982" lon="6.0664">
        <ele>1736.5999755859</ele>
        <time>2021-05-03T13:19:16Z</time>
      </trkpt>
      <trkpt lat="44.24987" lon="6.06636">
        <ele>1736.5999755859</ele>
        <time>2021-05-03T13:19:20Z</time>
      </trkpt>
      <trkpt lat="44.24995" lon="6.06618">
        <ele>1736.8000488281</ele>
        <time>2021-05-03T13:19:38Z</time>
      </trkpt>
      <trkpt lat="44.24997" lon="6.06615">
        <ele>1736.8000488281</ele>
        <time>2021-05-03T13:19:40Z</time>
      </trkpt>
      <trkpt lat="44.25003" lon="6.06599">
        <ele>1737</ele>
        <time>2021-05-03T13:19:52Z</time>
      </trkpt>
      <trkpt lat="44.25019" lon="6.06572">
        <ele>1737</ele>
        <time>2021-05-03T13:20:13Z</time>
      </trkpt>
      <trkpt lat="44.25038" lon="6.06551">
        <ele>1736.5999755859</ele>
        <time>2021-05-03T13:20:33Z</time>
      </trkpt>
      <trkpt lat="44.25042" lon="6.0651">
        <ele>1735.4000244141</ele>
        <time>2021-05-03T13:20:55Z</time>
      </trkpt>
      <trkpt lat="44.25048" lon="6.06466">
        <ele>1733.5999755859</ele>
        <time>2021-05-03T13:21:23Z</time>
      </trkpt>
      <trkpt lat="44.25044" lon="6.06454">
        <ele>1732.4000244141</ele>
        <time>2021-05-03T13:21:41Z</time>
      </trkpt>
      <trkpt lat="44.2504" lon="6.06443">
        <ele>1729.5999755859</ele>
        <time>2021-05-03T13:21:59Z</time>
      </trkpt>
      <trkpt lat="44.25041" lon="6.06438">
        <ele>1729.1999511719</ele>
        <time>2021-05-03T13:22:03Z</time>
      </trkpt>
      <trkpt lat="44.2504" lon="6.06414">
        <ele>1728.5999755859</ele>
        <time>2021-05-03T13:22:21Z</time>
      </trkpt>
      <trkpt lat="44.25034" lon="6.06396">
        <ele>1727</ele>
        <time>2021-05-03T13:22:39Z</time>
      </trkpt>
      <trkpt lat="44.25031" lon="6.06377">
        <ele>1725.4000244141</ele>
        <time>2021-05-03T13:22:54Z</time>
      </trkpt>
      <trkpt lat="44.2503" lon="6.06353">
        <ele>1726</ele>
        <time>2021-05-03T13:23:14Z</time>
      </trkpt>
      <trkpt lat="44.25033" lon="6.06328">
        <ele>1724.8000488281</ele>
        <time>2021-05-03T13:23:33Z</time>
      </trkpt>
      <trkpt lat="44.25038" lon="6.06302">
        <ele>1724.4000244141</ele>
        <time>2021-05-03T13:23:52Z</time>
      </trkpt>
      <trkpt lat="44.25042" lon="6.06275">
        <ele>1724</ele>
        <time>2021-05-03T13:24:12Z</time>
      </trkpt>
      <trkpt lat="44.25046" lon="6.0626">
        <ele>1724.4000244141</ele>
        <time>2021-05-03T13:24:28Z</time>
      </trkpt>
      <trkpt lat="44.25044" lon="6.06255">
        <ele>1724.4000244141</ele>
        <time>2021-05-03T13:24:39Z</time>
      </trkpt>
      <trkpt lat="44.25043" lon="6.0623">
        <ele>1723.1999511719</ele>
        <time>2021-05-03T13:24:59Z</time>
      </trkpt>
      <trkpt lat="44.25042" lon="6.06216">
        <ele>1722.4000244141</ele>
        <time>2021-05-03T13:25:09Z</time>
      </trkpt>
      <trkpt lat="44.25035" lon="6.06195">
        <ele>1720.8000488281</ele>
        <time>2021-05-03T13:25:27Z</time>
      </trkpt>
      <trkpt lat="44.25031" lon="6.06175">
        <ele>1717.5999755859</ele>
        <time>2021-05-03T13:25:44Z</time>
      </trkpt>
      <trkpt lat="44.25029" lon="6.06153">
        <ele>1715</ele>
        <time>2021-05-03T13:26:01Z</time>
      </trkpt>
      <trkpt lat="44.25029" lon="6.06132">
        <ele>1712</ele>
        <time>2021-05-03T13:26:18Z</time>
      </trkpt>
      <trkpt lat="44.25028" lon="6.06131">
        <ele>1711.1999511719</ele>
        <time>2021-05-03T13:27:13Z</time>
      </trkpt>
      <trkpt lat="44.2503" lon="6.06124">
        <ele>1711.4000244141</ele>
        <time>2021-05-03T13:28:05Z</time>
      </trkpt>
      <trkpt lat="44.25032" lon="6.06097">
        <ele>1708.8000488281</ele>
        <time>2021-05-03T13:28:35Z</time>
      </trkpt>
      <trkpt lat="44.25034" lon="6.06071">
        <ele>1706</ele>
        <time>2021-05-03T13:28:58Z</time>
      </trkpt>
      <trkpt lat="44.25033" lon="6.0604">
        <ele>1703.8000488281</ele>
        <time>2021-05-03T13:29:23Z</time>
      </trkpt>
      <trkpt lat="44.2503" lon="6.06016">
        <ele>1702.5999755859</ele>
        <time>2021-05-03T13:29:42Z</time>
      </trkpt>
      <trkpt lat="44.25029" lon="6.05998">
        <ele>1702</ele>
        <time>2021-05-03T13:29:56Z</time>
      </trkpt>
      <trkpt lat="44.25027" lon="6.05983">
        <ele>1701</ele>
        <time>2021-05-03T13:30:19Z</time>
      </trkpt>
      <trkpt lat="44.25026" lon="6.05976">
        <ele>1700.8000488281</ele>
        <time>2021-05-03T13:30:54Z</time>
      </trkpt>
      <trkpt lat="44.25025" lon="6.05973">
        <ele>1700.8000488281</ele>
        <time>2021-05-03T13:31:41Z</time>
      </trkpt>
      <trkpt lat="44.25025" lon="6.05952">
        <ele>1700</ele>
        <time>2021-05-03T13:31:57Z</time>
      </trkpt>
      <trkpt lat="44.25028" lon="6.05915">
        <ele>1698.4000244141</ele>
        <time>2021-05-03T13:32:24Z</time>
      </trkpt>
      <trkpt lat="44.25027" lon="6.05899">
        <ele>1697.8000488281</ele>
        <time>2021-05-03T13:32:36Z</time>
      </trkpt>
      <trkpt lat="44.25027" lon="6.05874">
        <ele>1697.1999511719</ele>
        <time>2021-05-03T13:32:56Z</time>
      </trkpt>
      <trkpt lat="44.25024" lon="6.05868">
        <ele>1696.4000244141</ele>
        <time>2021-05-03T13:33:00Z</time>
      </trkpt>
      <trkpt lat="44.25022" lon="6.05864">
        <ele>1696.1999511719</ele>
        <time>2021-05-03T13:33:03Z</time>
      </trkpt>
      <trkpt lat="44.25017" lon="6.05827">
        <ele>1696.5999755859</ele>
        <time>2021-05-03T13:33:30Z</time>
      </trkpt>
      <trkpt lat="44.25015" lon="6.05813">
        <ele>1696.4000244141</ele>
        <time>2021-05-03T13:33:52Z</time>
      </trkpt>
      <trkpt lat="44.25013" lon="6.05796">
        <ele>1696.5999755859</ele>
        <time>2021-05-03T13:34:08Z</time>
      </trkpt>
      <trkpt lat="44.25012" lon="6.05773">
        <ele>1695.5999755859</ele>
        <time>2021-05-03T13:34:28Z</time>
      </trkpt>
      <trkpt lat="44.25011" lon="6.05767">
        <ele>1695.4000244141</ele>
        <time>2021-05-03T13:34:33Z</time>
      </trkpt>
      <trkpt lat="44.25011" lon="6.05747">
        <ele>1695.1999511719</ele>
        <time>2021-05-03T13:34:48Z</time>
      </trkpt>
      <trkpt lat="44.25012" lon="6.05717">
        <ele>1693.1999511719</ele>
        <time>2021-05-03T13:35:11Z</time>
      </trkpt>
      <trkpt lat="44.25013" lon="6.0569">
        <ele>1692.1999511719</ele>
        <time>2021-05-03T13:35:32Z</time>
      </trkpt>
      <trkpt lat="44.25014" lon="6.05669">
        <ele>1691.4000244141</ele>
        <time>2021-05-03T13:35:47Z</time>
      </trkpt>
      <trkpt lat="44.25014" lon="6.05644">
        <ele>1689.1999511719</ele>
        <time>2021-05-03T13:36:04Z</time>
      </trkpt>
      <trkpt lat="44.25015" lon="6.05622">
        <ele>1688.4000244141</ele>
        <time>2021-05-03T13:36:22Z</time>
      </trkpt>
      <trkpt lat="44.25014" lon="6.05604">
        <ele>1687</ele>
        <time>2021-05-03T13:36:37Z</time>
      </trkpt>
      <trkpt lat="44.25021" lon="6.05586">
        <ele>1684.5999755859</ele>
        <time>2021-05-03T13:36:57Z</time>
      </trkpt>
      <trkpt lat="44.25027" lon="6.05573">
        <ele>1681.4000244141</ele>
        <time>2021-05-03T13:37:13Z</time>
      </trkpt>
      <trkpt lat="44.25034" lon="6.05562">
        <ele>1678.4000244141</ele>
        <time>2021-05-03T13:37:27Z</time>
      </trkpt>
      <trkpt lat="44.2504" lon="6.05548">
        <ele>1675.4000244141</ele>
        <time>2021-05-03T13:37:41Z</time>
      </trkpt>
      <trkpt lat="44.25044" lon="6.0553">
        <ele>1672.8000488281</ele>
        <time>2021-05-03T13:37:56Z</time>
      </trkpt>
      <trkpt lat="44.2504" lon="6.05507">
        <ele>1669.4000244141</ele>
        <time>2021-05-03T13:38:15Z</time>
      </trkpt>
      <trkpt lat="44.25036" lon="6.05487">
        <ele>1666.4000244141</ele>
        <time>2021-05-03T13:38:32Z</time>
      </trkpt>
      <trkpt lat="44.25032" lon="6.05469">
        <ele>1663.4000244141</ele>
        <time>2021-05-03T13:38:48Z</time>
      </trkpt>
      <trkpt lat="44.2503" lon="6.05459">
        <ele>1661</ele>
        <time>2021-05-03T13:38:57Z</time>
      </trkpt>
      <trkpt lat="44.25026" lon="6.05437">
        <ele>1658.1999511719</ele>
        <time>2021-05-03T13:39:16Z</time>
      </trkpt>
      <trkpt lat="44.25021" lon="6.05419">
        <ele>1655.4000244141</ele>
        <time>2021-05-03T13:39:30Z</time>
      </trkpt>
      <trkpt lat="44.2502" lon="6.05416">
        <ele>1655</ele>
        <time>2021-05-03T13:39:33Z</time>
      </trkpt>
      <trkpt lat="44.25016" lon="6.05396">
        <ele>1652.4000244141</ele>
        <time>2021-05-03T13:39:50Z</time>
      </trkpt>
      <trkpt lat="44.25012" lon="6.05382">
        <ele>1649.1999511719</ele>
        <time>2021-05-03T13:40:04Z</time>
      </trkpt>
      <trkpt lat="44.25008" lon="6.05361">
        <ele>1646</ele>
        <time>2021-05-03T13:40:24Z</time>
      </trkpt>
      <trkpt lat="44.25007" lon="6.05346">
        <ele>1643</ele>
        <time>2021-05-03T13:40:39Z</time>
      </trkpt>
      <trkpt lat="44.25005" lon="6.05332">
        <ele>1639.8000488281</ele>
        <time>2021-05-03T13:40:54Z</time>
      </trkpt>
      <trkpt lat="44.25006" lon="6.05313">
        <ele>1637</ele>
        <time>2021-05-03T13:41:15Z</time>
      </trkpt>
      <trkpt lat="44.25003" lon="6.05302">
        <ele>1633.5999755859</ele>
        <time>2021-05-03T13:41:28Z</time>
      </trkpt>
      <trkpt lat="44.25" lon="6.05294">
        <ele>1630.4000244141</ele>
        <time>2021-05-03T13:41:40Z</time>
      </trkpt>
      <trkpt lat="44.24999" lon="6.05289">
        <ele>1627.5999755859</ele>
        <time>2021-05-03T13:41:47Z</time>
      </trkpt>
      <trkpt lat="44.24994" lon="6.05279">
        <ele>1624</ele>
        <time>2021-05-03T13:42:01Z</time>
      </trkpt>
      <trkpt lat="44.24992" lon="6.05274">
        <ele>1621.8000488281</ele>
        <time>2021-05-03T13:42:16Z</time>
      </trkpt>
      <trkpt lat="44.24986" lon="6.0527">
        <ele>1620.5999755859</ele>
        <time>2021-05-03T13:42:35Z</time>
      </trkpt>
      <trkpt lat="44.24984" lon="6.05265">
        <ele>1620</ele>
        <time>2021-05-03T13:42:39Z</time>
      </trkpt>
      <trkpt lat="44.24979" lon="6.05253">
        <ele>1616.8000488281</ele>
        <time>2021-05-03T13:42:51Z</time>
      </trkpt>
      <trkpt lat="44.24978" lon="6.05252">
        <ele>1616.8000488281</ele>
        <time>2021-05-03T13:42:52Z</time>
      </trkpt>
      <trkpt lat="44.24973" lon="6.05246">
        <ele>1613.5999755859</ele>
        <time>2021-05-03T13:43:04Z</time>
      </trkpt>
      <trkpt lat="44.24971" lon="6.05244">
        <ele>1612.5999755859</ele>
        <time>2021-05-03T13:43:12Z</time>
      </trkpt>
      <trkpt lat="44.24962" lon="6.05231">
        <ele>1610</ele>
        <time>2021-05-03T13:43:30Z</time>
      </trkpt>
      <trkpt lat="44.24956" lon="6.05223">
        <ele>1606.8000488281</ele>
        <time>2021-05-03T13:43:47Z</time>
      </trkpt>
      <trkpt lat="44.24948" lon="6.05208">
        <ele>1604.4000244141</ele>
        <time>2021-05-03T13:44:03Z</time>
      </trkpt>
      <trkpt lat="44.24939" lon="6.05192">
        <ele>1602.1999511719</ele>
        <time>2021-05-03T13:44:19Z</time>
      </trkpt>
      <trkpt lat="44.24933" lon="6.05172">
        <ele>1602.1999511719</ele>
        <time>2021-05-03T13:44:38Z</time>
      </trkpt>
      <trkpt lat="44.24937" lon="6.05171">
        <ele>1601.8000488281</ele>
        <time>2021-05-03T13:45:01Z</time>
      </trkpt>
      <trkpt lat="44.24929" lon="6.05179">
        <ele>1601.1999511719</ele>
        <time>2021-05-03T13:46:30Z</time>
      </trkpt>
      <trkpt lat="44.24918" lon="6.0519">
        <ele>1600.5999755859</ele>
        <time>2021-05-03T13:46:48Z</time>
      </trkpt>
      <trkpt lat="44.24907" lon="6.05202">
        <ele>1597.5999755859</ele>
        <time>2021-05-03T13:47:09Z</time>
      </trkpt>
      <trkpt lat="44.24899" lon="6.05209">
        <ele>1594.8000488281</ele>
        <time>2021-05-03T13:47:30Z</time>
      </trkpt>
      <trkpt lat="44.24897" lon="6.05211">
        <ele>1594.8000488281</ele>
        <time>2021-05-03T13:47:58Z</time>
      </trkpt>
      <trkpt lat="44.24898" lon="6.05208">
        <ele>1594.8000488281</ele>
        <time>2021-05-03T13:48:16Z</time>
      </trkpt>
      <trkpt lat="44.24894" lon="6.05218">
        <ele>1595</ele>
        <time>2021-05-03T13:48:42Z</time>
      </trkpt>
      <trkpt lat="44.2489" lon="6.0524">
        <ele>1596.1999511719</ele>
        <time>2021-05-03T13:49:02Z</time>
      </trkpt>
      <trkpt lat="44.2489" lon="6.05246">
        <ele>1596.4000244141</ele>
        <time>2021-05-03T13:49:06Z</time>
      </trkpt>
      <trkpt lat="44.24895" lon="6.05268">
        <ele>1597.8000488281</ele>
        <time>2021-05-03T13:49:23Z</time>
      </trkpt>
      <trkpt lat="44.24897" lon="6.05281">
        <ele>1597.5999755859</ele>
        <time>2021-05-03T13:49:33Z</time>
      </trkpt>
      <trkpt lat="44.24897" lon="6.05312">
        <ele>1594.4000244141</ele>
        <time>2021-05-03T13:49:51Z</time>
      </trkpt>
      <trkpt lat="44.24894" lon="6.05329">
        <ele>1591.4000244141</ele>
        <time>2021-05-03T13:50:06Z</time>
      </trkpt>
      <trkpt lat="44.24893" lon="6.05332">
        <ele>1591.1999511719</ele>
        <time>2021-05-03T13:50:09Z</time>
      </trkpt>
      <trkpt lat="44.24892" lon="6.05338">
        <ele>1591</ele>
        <time>2021-05-03T13:50:13Z</time>
      </trkpt>
      <trkpt lat="44.24883" lon="6.05372">
        <ele>1588.4000244141</ele>
        <time>2021-05-03T13:50:37Z</time>
      </trkpt>
      <trkpt lat="44.24875" lon="6.05401">
        <ele>1585.1999511719</ele>
        <time>2021-05-03T13:50:57Z</time>
      </trkpt>
      <trkpt lat="44.24872" lon="6.05407">
        <ele>1584</ele>
        <time>2021-05-03T13:51:08Z</time>
      </trkpt>
      <trkpt lat="44.24867" lon="6.05439">
        <ele>1582</ele>
        <time>2021-05-03T13:51:27Z</time>
      </trkpt>
      <trkpt lat="44.24861" lon="6.05469">
        <ele>1579</ele>
        <time>2021-05-03T13:51:47Z</time>
      </trkpt>
      <trkpt lat="44.2486" lon="6.05491">
        <ele>1577.5999755859</ele>
        <time>2021-05-03T13:52:02Z</time>
      </trkpt>
      <trkpt lat="44.24856" lon="6.05496">
        <ele>1577.1999511719</ele>
        <time>2021-05-03T13:52:07Z</time>
      </trkpt>
      <trkpt lat="44.24853" lon="6.05498">
        <ele>1576.8000488281</ele>
        <time>2021-05-03T13:52:10Z</time>
      </trkpt>
      <trkpt lat="44.24847" lon="6.05494">
        <ele>1576.1999511719</ele>
        <time>2021-05-03T13:52:17Z</time>
      </trkpt>
      <trkpt lat="44.24845" lon="6.05472">
        <ele>1574.5999755859</ele>
        <time>2021-05-03T13:52:32Z</time>
      </trkpt>
      <trkpt lat="44.24844" lon="6.05464">
        <ele>1573.5999755859</ele>
        <time>2021-05-03T13:52:38Z</time>
      </trkpt>
      <trkpt lat="44.24843" lon="6.05449">
        <ele>1572.1999511719</ele>
        <time>2021-05-03T13:52:49Z</time>
      </trkpt>
      <trkpt lat="44.24842" lon="6.05416">
        <ele>1570.1999511719</ele>
        <time>2021-05-03T13:53:13Z</time>
      </trkpt>
      <trkpt lat="44.24843" lon="6.05396">
        <ele>1568.5999755859</ele>
        <time>2021-05-03T13:53:27Z</time>
      </trkpt>
      <trkpt lat="44.24843" lon="6.05374">
        <ele>1567.4000244141</ele>
        <time>2021-05-03T13:53:40Z</time>
      </trkpt>
      <trkpt lat="44.24844" lon="6.05354">
        <ele>1566</ele>
        <time>2021-05-03T13:53:55Z</time>
      </trkpt>
      <trkpt lat="44.24844" lon="6.05329">
        <ele>1564</ele>
        <time>2021-05-03T13:54:12Z</time>
      </trkpt>
      <trkpt lat="44.24846" lon="6.05307">
        <ele>1562.4000244141</ele>
        <time>2021-05-03T13:54:28Z</time>
      </trkpt>
      <trkpt lat="44.24846" lon="6.053">
        <ele>1562</ele>
        <time>2021-05-03T13:54:34Z</time>
      </trkpt>
      <trkpt lat="44.24845" lon="6.05277">
        <ele>1560.5999755859</ele>
        <time>2021-05-03T13:54:47Z</time>
      </trkpt>
      <trkpt lat="44.24835" lon="6.05258">
        <ele>1559.4000244141</ele>
        <time>2021-05-03T13:55:04Z</time>
      </trkpt>
      <trkpt lat="44.2483" lon="6.05277">
        <ele>1556.8000488281</ele>
        <time>2021-05-03T13:55:18Z</time>
      </trkpt>
      <trkpt lat="44.24827" lon="6.05286">
        <ele>1555.5999755859</ele>
        <time>2021-05-03T13:55:25Z</time>
      </trkpt>
      <trkpt lat="44.24826" lon="6.05289">
        <ele>1555.4000244141</ele>
        <time>2021-05-03T13:55:27Z</time>
      </trkpt>
      <trkpt lat="44.24824" lon="6.05295">
        <ele>1554.5999755859</ele>
        <time>2021-05-03T13:55:31Z</time>
      </trkpt>
      <trkpt lat="44.2482" lon="6.05306">
        <ele>1552.5999755859</ele>
        <time>2021-05-03T13:55:44Z</time>
      </trkpt>
      <trkpt lat="44.24811" lon="6.05323">
        <ele>1552</ele>
        <time>2021-05-03T13:56:07Z</time>
      </trkpt>
      <trkpt lat="44.24801" lon="6.05342">
        <ele>1549</ele>
        <time>2021-05-03T13:56:23Z</time>
      </trkpt>
      <trkpt lat="44.24789" lon="6.05367">
        <ele>1546.4000244141</ele>
        <time>2021-05-03T13:56:41Z</time>
      </trkpt>
      <trkpt lat="44.24773" lon="6.05392">
        <ele>1543.1999511719</ele>
        <time>2021-05-03T13:57:01Z</time>
      </trkpt>
      <trkpt lat="44.2475" lon="6.05406">
        <ele>1540.8000488281</ele>
        <time>2021-05-03T13:57:24Z</time>
      </trkpt>
      <trkpt lat="44.24734" lon="6.05403">
        <ele>1537.8000488281</ele>
        <time>2021-05-03T13:57:39Z</time>
      </trkpt>
      <trkpt lat="44.24715" lon="6.05398">
        <ele>1534.5999755859</ele>
        <time>2021-05-03T13:57:56Z</time>
      </trkpt>
      <trkpt lat="44.2471" lon="6.05395">
        <ele>1533</ele>
        <time>2021-05-03T13:58:01Z</time>
      </trkpt>
      <trkpt lat="44.24693" lon="6.05386">
        <ele>1530.5999755859</ele>
        <time>2021-05-03T13:58:17Z</time>
      </trkpt>
      <trkpt lat="44.24671" lon="6.0538">
        <ele>1528</ele>
        <time>2021-05-03T13:58:39Z</time>
      </trkpt>
      <trkpt lat="44.2465" lon="6.05369">
        <ele>1524.8000488281</ele>
        <time>2021-05-03T13:58:59Z</time>
      </trkpt>
      <trkpt lat="44.24646" lon="6.05361">
        <ele>1524</ele>
        <time>2021-05-03T13:59:14Z</time>
      </trkpt>
      <trkpt lat="44.24636" lon="6.05352">
        <ele>1522.4000244141</ele>
        <time>2021-05-03T13:59:30Z</time>
      </trkpt>
      <trkpt lat="44.24625" lon="6.05347">
        <ele>1519.8000488281</ele>
        <time>2021-05-03T13:59:48Z</time>
      </trkpt>
      <trkpt lat="44.24608" lon="6.05343">
        <ele>1516.4000244141</ele>
        <time>2021-05-03T14:00:06Z</time>
      </trkpt>
      <trkpt lat="44.24595" lon="6.05334">
        <ele>1513.4000244141</ele>
        <time>2021-05-03T14:00:28Z</time>
      </trkpt>
      <trkpt lat="44.24587" lon="6.05321">
        <ele>1510.1999511719</ele>
        <time>2021-05-03T14:00:42Z</time>
      </trkpt>
      <trkpt lat="44.24587" lon="6.05325">
        <ele>1508.1999511719</ele>
        <time>2021-05-03T14:00:59Z</time>
      </trkpt>
      <trkpt lat="44.24588" lon="6.05317">
        <ele>1508.4000244141</ele>
        <time>2021-05-03T14:01:42Z</time>
      </trkpt>
      <trkpt lat="44.2458" lon="6.05318">
        <ele>1507.8000488281</ele>
        <time>2021-05-03T14:02:25Z</time>
      </trkpt>
      <trkpt lat="44.24576" lon="6.05321">
        <ele>1506.8000488281</ele>
        <time>2021-05-03T14:02:44Z</time>
      </trkpt>
      <trkpt lat="44.24569" lon="6.05314">
        <ele>1505.8000488281</ele>
        <time>2021-05-03T14:03:02Z</time>
      </trkpt>
      <trkpt lat="44.24566" lon="6.05314">
        <ele>1504.5999755859</ele>
        <time>2021-05-03T14:03:19Z</time>
      </trkpt>
      <trkpt lat="44.24566" lon="6.05318">
        <ele>1504.4000244141</ele>
        <time>2021-05-03T14:03:47Z</time>
      </trkpt>
      <trkpt lat="44.24563" lon="6.05314">
        <ele>1503.5999755859</ele>
        <time>2021-05-03T14:04:13Z</time>
      </trkpt>
      <trkpt lat="44.24564" lon="6.05304">
        <ele>1503.1999511719</ele>
        <time>2021-05-03T14:04:49Z</time>
      </trkpt>
      <trkpt lat="44.24565" lon="6.05304">
        <ele>1503.4000244141</ele>
        <time>2021-05-03T14:05:23Z</time>
      </trkpt>
      <trkpt lat="44.24562" lon="6.05306">
        <ele>1503.4000244141</ele>
        <time>2021-05-03T14:05:26Z</time>
      </trkpt>
      <trkpt lat="44.24561" lon="6.05307">
        <ele>1503.4000244141</ele>
        <time>2021-05-03T14:05:54Z</time>
      </trkpt>
      <trkpt lat="44.24564" lon="6.05292">
        <ele>1501.4000244141</ele>
        <time>2021-05-03T14:06:14Z</time>
      </trkpt>
      <trkpt lat="44.2455" lon="6.05292">
        <ele>1499.5999755859</ele>
        <time>2021-05-03T14:06:34Z</time>
      </trkpt>
      <trkpt lat="44.2453" lon="6.05282">
        <ele>1497.1999511719</ele>
        <time>2021-05-03T14:06:56Z</time>
      </trkpt>
      <trkpt lat="44.24519" lon="6.05267">
        <ele>1495</ele>
        <time>2021-05-03T14:07:16Z</time>
      </trkpt>
      <trkpt lat="44.24512" lon="6.05273">
        <ele>1494.1999511719</ele>
        <time>2021-05-03T14:07:36Z</time>
      </trkpt>
      <trkpt lat="44.24504" lon="6.05267">
        <ele>1492</ele>
        <time>2021-05-03T14:08:00Z</time>
      </trkpt>
      <trkpt lat="44.24499" lon="6.05258">
        <ele>1492</ele>
        <time>2021-05-03T14:08:22Z</time>
      </trkpt>
      <trkpt lat="44.24498" lon="6.05259">
        <ele>1492.1999511719</ele>
        <time>2021-05-03T14:08:26Z</time>
      </trkpt>
    </trkseg>
  </trk>
</gpx>